M I D A S
Marine Information and Data Acquisition System
Tripno 484 of the Zeeleeuw from 2003-05-05 06:53:56 to 2003-05-05 15:13:46
Back to CruiseResearch ActivitiesStationsMapUnderway DataData graphs

EquipmentUnitsComment
TimeDGPSUTC
LatitudeDGPSDM.mWGS84
LongitudeDGPSDM.mWGS84
TemperatureSBE03/SBE38deg celciusITS90
ConductivitySBE21S/mITS90
SalinitySBE21 Practical Salinity Units
ChlorophylAChelsea fluorimeterg/lCalibrated in Aceton
Missing or incorrect values are displayed as -999
Sea surface data collected by the RV Zeeleeuw from 2003-05-05 06:53:56 to 2003-05-05 15:13:46
                                                                                    Next 1000 lines
Time Latitude Longitude Temperature Conductivity Salinity ChlorophylA
2003-05-05 06:54:02 51°13.6 2°56.1 12.198689 3.671836 31.463002 15.736358
2003-05-05 06:54:08 51°13.6 2°56.1 12.201184 3.66762 31.424165 15.938614
2003-05-05 06:54:14 51°13.6 2°56.1 12.204404 3.663721 31.381774 15.871195
2003-05-05 06:54:18 51°13.6 2°56.1 12.205538 3.663089 31.376411 16.073452
2003-05-05 06:54:22 51°13.6 2°56.1 12.204813 3.662246 31.365758 15.938614
2003-05-05 06:54:28 51°13.6 2°56.1 12.204813 3.662246 31.365758 15.938614
2003-05-05 06:54:34 51°13.6 2°56.1 12.202726 3.660455 31.34739 15.972324
2003-05-05 06:54:38 51°13.6 2°56.1 12.202 3.658558 31.329334 16.073452
2003-05-05 06:54:42 51°13.6 2°56.1 12.199687 3.652973 31.274215 16.241999
2003-05-05 06:54:48 51°13.6 2°56.1 12.198462 3.65213 31.264884 16.208289
2003-05-05 06:54:54 51°13.6 2°56.1 12.196285 3.649284 31.238467 16.275708
2003-05-05 06:54:58 51°13.6 2°56.1 12.196285 3.649284 31.238467 16.275708
2003-05-05 06:55:02 51°13.6 2°56.1 12.195922 3.646966 31.215105 16.241999
2003-05-05 06:55:08 51°13.6 2°56.1 12.19565 3.649074 31.236462 16.17458
2003-05-05 06:55:12 51°13.6 2°56.1 12.196784 3.653921 31.283894 16.241999
2003-05-05 06:55:18 51°13.6 2°56.1 12.202726 3.658558 31.327368 15.803777
2003-05-05 06:55:22 51°13.6 2°56.09 12.205493 3.654975 31.295887 15.770067
2003-05-05 06:55:30 51°13.6 2°56.09 12.205493 3.654975 31.295887 15.770067
2003-05-05 06:55:34 51°13.6 2°56.08 12.205357 3.662668 31.37174 15.736358
2003-05-05 06:55:40 51°13.61 2°56.07 12.205175 3.664143 31.383817 15.668939
2003-05-05 06:55:46 51°13.61 2°56.07 12.223769 3.664986 31.392501 15.534101
2003-05-05 06:55:52 51°13.61 2°56.06 12.232112 3.665091 31.394819 15.365554
2003-05-05 06:55:58 51°13.61 2°56.05 12.250471 3.658663 31.330993 15.298136
2003-05-05 06:56:02 51°13.61 2°56.05 12.250471 3.658663 31.330993 15.298136
2003-05-05 06:56:08 51°13.62 2°56.04 12.269006 3.665618 31.393266 16.680221
2003-05-05 06:56:14 51°13.62 2°56.03 12.286993 3.664564 31.380607 21.938888
2003-05-05 06:56:18 51°13.62 2°56.02 12.307149 3.652762 31.266321 24.096289
2003-05-05 06:56:22 51°13.62 2°56.01 12.324084 3.636745 31.105527 25.512084
2003-05-05 06:56:28 51°13.62 2°56 12.342916 3.618093 30.921857 25.984016
2003-05-05 06:56:34 51°13.63 2°55.99 12.342916 3.618093 30.921857 25.984016
2003-05-05 06:56:38 51°13.63 2°55.99 12.355181 3.599759 30.734986 28.00658
2003-05-05 06:56:44 51°13.63 2°55.97 12.368077 3.581952 30.552131 26.219982
2003-05-05 06:56:48 51°13.63 2°55.97 12.37803 3.559825 30.327451 25.74805
2003-05-05 06:56:54 51°13.64 2°55.96 12.387891 3.549921 30.221816 25.478375
2003-05-05 06:56:58 51°13.64 2°55.95 12.394902 3.533485 30.050876 25.17499
2003-05-05 06:57:04 51°13.64 2°55.94 12.394902 3.533485 30.050876 25.17499
2003-05-05 06:57:08 51°13.64 2°55.93 12.39852 3.517471 29.889185 24.568221
2003-05-05 06:57:14 51°13.65 2°55.92 12.403313 3.51136 29.822259 24.096289
2003-05-05 06:57:18 51°13.65 2°55.91 12.404263 3.498507 29.690046 23.691777
2003-05-05 06:57:24 51°13.65 2°55.9 12.396349 3.496716 29.663924 23.017589
2003-05-05 06:57:28 51°13.66 2°55.89 12.38382 3.489763 29.592957 22.37711
2003-05-05 06:57:34 51°13.66 2°55.88 12.38382 3.489763 29.592957 22.37711
2003-05-05 06:57:38 51°13.66 2°55.87 12.370837 3.485865 29.548305 21.972597
2003-05-05 06:57:44 51°13.67 2°55.86 12.357851 3.483863 29.524575 21.601794
2003-05-05 06:57:48 51°13.67 2°55.85 12.345677 3.476489 29.454044 21.197281
2003-05-05 06:57:54 51°13.67 2°55.84 12.336941 3.482493 29.509248 20.826477
2003-05-05 06:57:58 51°13.67 2°55.83 12.332595 3.487761 29.560602 20.69164
2003-05-05 06:58:04 51°13.67 2°55.82 12.332595 3.487761 29.560602 20.69164
2003-05-05 06:58:08 51°13.68 2°55.82 12.329381 3.509253 29.76955 20.455674
2003-05-05 06:58:14 51°13.68 2°55.81 12.331735 3.524002 29.91464 20.152289
2003-05-05 06:58:18 51°13.68 2°55.8 12.337077 3.542756 30.100138 19.815195
2003-05-05 06:58:24 51°13.68 2°55.79 12.347759 3.553819 30.212035 19.747777
2003-05-05 06:58:28 51°13.68 2°55.79 12.359932 3.560667 30.283612 19.612939
2003-05-05 06:58:34 51°13.68 2°55.78 12.359932 3.560667 30.283612 19.612939
2003-05-05 06:58:38 51°13.68 2°55.77 12.366357 3.569834 30.378407 19.444392
2003-05-05 06:58:42 51°13.68 2°55.77 12.369977 3.572468 30.404563 19.107298
2003-05-05 06:58:48 51°13.68 2°55.76 12.375994 3.575207 30.429819 19.073589
2003-05-05 06:58:52 51°13.68 2°55.76 12.381151 3.565514 30.338226 19.107298
2003-05-05 06:58:58 51°13.68 2°55.76 12.382599 3.561299 30.292735 19.141007
2003-05-05 06:59:02 51°13.68 2°55.76 12.382599 3.561299 30.292735 19.141007
2003-05-05 06:59:06 51°13.68 2°55.75 12.386489 3.549604 30.176036 19.376973
2003-05-05 06:59:12 51°13.68 2°55.75 12.390786 3.54676 30.142289 19.646648
2003-05-05 06:59:16 51°13.69 2°55.75 12.398158 3.541913 30.092816 19.747777
2003-05-05 06:59:20 51°13.69 2°55.75 12.423389 3.537909 30.051936 19.882614
2003-05-05 06:59:26 51°13.69 2°55.76 12.445763 3.532852 29.998646 20.185999
2003-05-05 06:59:30 51°13.69 2°55.76 12.445763 3.532852 29.998646 20.185999
2003-05-05 06:59:34 51°13.69 2°55.76 12.472737 3.532115 29.99232 20.388255
2003-05-05 06:59:38 51°13.69 2°55.76 12.492385 3.531798 29.983727 20.590512
2003-05-05 06:59:44 51°13.69 2°55.76 12.504216 3.528743 29.95245 20.961315
2003-05-05 06:59:48 51°13.7 2°55.76 12.511078 3.514309 29.807852 21.197281
2003-05-05 06:59:54 51°13.7 2°55.76 12.514555 3.50251 29.685725 21.466956
2003-05-05 06:59:58 51°13.7 2°55.76 12.514555 3.50251 29.685725 21.466956
2003-05-05 07:00:02 51°13.7 2°55.76 12.518843 3.475961 29.422794 21.635503
2003-05-05 07:00:08 51°13.71 2°55.76 12.517625 3.453207 29.192316 21.871469
2003-05-05 07:00:14 51°13.71 2°55.76 12.515683 3.436563 29.021918 21.938888
2003-05-05 07:00:18 51°13.71 2°55.76 12.512388 3.425291 28.906239 21.938888
2003-05-05 07:00:22 51°13.72 2°55.76 12.509905 3.41855 28.837213 21.905178
2003-05-05 07:00:28 51°13.72 2°55.75 12.509905 3.41855 28.837213 21.905178
2003-05-05 07:00:34 51°13.73 2°55.75 12.512794 3.415811 28.803851 22.040016
2003-05-05 07:00:38 51°13.73 2°55.75 12.518527 3.413915 28.783748 22.174853
2003-05-05 07:00:42 51°13.73 2°55.74 12.526337 3.413704 28.78178 22.275982
2003-05-05 07:00:48 51°13.74 2°55.74 12.534912 3.418971 28.830398 22.444529
2003-05-05 07:00:54 51°13.74 2°55.73 12.550797 3.421183 28.850474 22.444529
2003-05-05 07:00:58 51°13.74 2°55.73 12.550797 3.421183 28.850474 22.444529
2003-05-05 07:01:02 51°13.75 2°55.73 12.573038 3.424238 28.879625 22.579366
2003-05-05 07:01:08 51°13.75 2°55.72 12.611637 3.424659 28.881768 22.646785
2003-05-05 07:01:14 51°13.76 2°55.71 12.65116 3.418444 28.821297 22.882751
2003-05-05 07:01:18 51°13.76 2°55.71 12.676881 3.41244 28.761629 23.017589
2003-05-05 07:01:22 51°13.77 2°55.7 12.691876 3.400958 28.647298 23.051298
2003-05-05 07:01:28 51°13.77 2°55.69 12.691876 3.400958 28.647298 23.051298
2003-05-05 07:01:34 51°13.78 2°55.69 12.691696 3.388213 28.518932 23.354683
2003-05-05 07:01:38 51°13.78 2°55.68 12.68296 3.360195 28.240306 23.658067
2003-05-05 07:01:42 51°13.79 2°55.68 12.677151 3.321963 27.861716 23.961452
2003-05-05 07:01:48 51°13.8 2°55.67 12.662423 3.287314 27.520949 24.028871
2003-05-05 07:01:54 51°13.8 2°55.66 12.654359 3.260776 27.254451 24.096289
2003-05-05 07:01:58 51°13.81 2°55.65 12.654359 3.260776 27.254451 24.096289
2003-05-05 07:02:02 51°13.82 2°55.65 12.647736 3.23824 27.037285 23.995161
2003-05-05 07:02:08 51°13.82 2°55.64 12.638454 3.24519 27.095327 23.995161
2003-05-05 07:02:14 51°13.83 2°55.63 12.623312 3.24698 27.112416 23.826614
2003-05-05 07:02:18 51°13.84 2°55.63 12.604965 3.259406 27.23113 23.826614
2003-05-05 07:02:22 51°13.85 2°55.62 12.592476 3.270464 27.337283 23.792905
2003-05-05 07:02:28 51°13.86 2°55.61 12.592476 3.270464 27.337283 23.792905
2003-05-05 07:02:34 51°13.86 2°55.61 12.579758 3.280995 27.439779 23.658067
2003-05-05 07:02:38 51°13.87 2°55.6 12.568076 3.290157 27.531386 23.320973
2003-05-05 07:02:42 51°13.88 2°55.59 12.564467 3.304375 27.667636 23.085007
2003-05-05 07:02:48 51°13.89 2°55.59 12.563294 3.321541 27.83711 22.95017
2003-05-05 07:02:54 51°13.9 2°55.58 12.567354 3.33913 28.010749 22.91646
2003-05-05 07:02:58 51°13.9 2°55.57 12.567354 3.33913 28.010749 22.91646
2003-05-05 07:03:02 51°13.91 2°55.57 12.572271 3.356298 28.178404 22.849042
2003-05-05 07:03:08 51°13.92 2°55.56 12.574977 3.370096 28.316671 22.613076
2003-05-05 07:03:14 51°13.93 2°55.55 12.577368 3.375994 28.379194 22.444529
2003-05-05 07:03:18 51°13.94 2°55.54 12.577007 3.384842 28.465712 22.309691
2003-05-05 07:03:22 51°13.95 2°55.54 12.56582 3.385685 28.475329 22.174853
2003-05-05 07:03:28 51°13.96 2°55.53 12.56582 3.385685 28.475329 22.174853
2003-05-05 07:03:34 51°13.97 2°55.52 12.541501 3.383578 28.456879 22.107435
2003-05-05 07:03:38 51°13.98 2°55.52 12.522951 3.381998 28.438631 22.208563
2003-05-05 07:03:44 51°13.99 2°55.51 12.503313 3.379786 28.416853 22.141144
2003-05-05 07:03:48 51°13.99 2°55.5 12.488546 3.378838 28.406263 22.107435
2003-05-05 07:03:54 51°14.01 2°55.49 12.478474 3.384105 28.457667 22.006306
2003-05-05 07:03:58 51°14.01 2°55.49 12.478474 3.384105 28.457667 22.006306
2003-05-05 07:04:04 51°14.03 2°55.48 12.462527 3.394743 28.561517 22.006306
2003-05-05 07:04:08 51°14.03 2°55.48 12.461352 3.419918 28.810017 22.073725
2003-05-05 07:04:14 51°14.04 2°55.47 12.449604 3.438669 28.994744 22.37711
2003-05-05 07:04:18 51°14.05 2°55.46 12.439345 3.467744 29.278797 22.410819
2003-05-05 07:04:24 51°14.06 2°55.45 12.424338 3.484494 29.4491 22.680494
2003-05-05 07:04:28 51°14.07 2°55.44 12.424338 3.484494 29.4491 22.680494
2003-05-05 07:04:34 51°14.08 2°55.43 12.415793 3.503668 29.639963 22.714204
2003-05-05 07:04:38 51°14.09 2°55.43 12.401278 3.517153 29.77582 22.680494
2003-05-05 07:04:44 51°14.1 2°55.42 30.148537 3.529374 29.895612 22.613076
2003-05-05 07:04:48 51°14.11 2°55.41 15.074343 3.54128 30.017517 22.545657
2003-05-05 07:04:54 51°14.13 2°55.4 13.455755 3.554028 30.144997 22.680494
2003-05-05 07:04:58 51°14.14 2°55.4 13.455755 3.554028 30.144997 22.680494
2003-05-05 07:05:04 51°14.15 2°55.39 20.295306 3.563406 30.240214 22.309691
2003-05-05 07:05:10 51°14.16 2°55.37 12.387439 3.578367 30.391953 22.107435
2003-05-05 07:05:14 51°14.17 2°55.37 12.382961 3.587534 30.487926 21.972597
2003-05-05 07:05:18 51°14.18 2°55.36 12.37337 3.598809 30.601989 21.905178
2003-05-05 07:05:24 51°14.19 2°55.35 12.366357 3.608714 30.700024 21.837759
2003-05-05 07:05:30 51°14.21 2°55.33 12.366357 3.608714 30.700024 21.837759
2003-05-05 07:05:34 51°14.22 2°55.32 12.360973 3.612296 30.733243 21.702922
2003-05-05 07:05:38 51°14.22 2°55.31 12.373868 3.61493 30.76198 21.837759
2003-05-05 07:05:44 51°14.24 2°55.3 12.395399 3.615773 30.77187 21.702922
2003-05-05 07:05:50 51°14.25 2°55.28 12.411995 3.629367 30.904923 21.770341
2003-05-05 07:05:54 51°14.26 2°55.27 12.419094 3.641063 31.020135 21.702922
2003-05-05 07:06:00 51°14.27 2°55.25 12.419094 3.641063 31.020135 21.702922
2003-05-05 07:06:04 51°14.27 2°55.24 12.423841 3.651601 31.125753 21.669212
2003-05-05 07:06:10 51°14.29 2°55.22 12.433379 3.65002 31.112075 21.635503
2003-05-05 07:06:14 51°14.29 2°55.21 12.448881 3.641801 31.027764 21.635503
2003-05-05 07:06:18 51°14.3 2°55.2 12.465057 3.627997 30.888106 21.332118
2003-05-05 07:06:22 51°14.31 2°55.18 12.479738 3.617459 30.779485 21.23099
2003-05-05 07:06:28 51°14.32 2°55.16 12.479738 3.617459 30.779485 21.23099
2003-05-05 07:06:34 51°14.33 2°55.14 12.500378 3.61335 30.733612 21.129862
2003-05-05 07:06:38 51°14.33 2°55.13 12.521507 3.606184 30.658909 21.096153
2003-05-05 07:06:42 51°14.34 2°55.12 12.544209 3.599862 30.593491 21.197281
2003-05-05 07:06:48 51°14.35 2°55.1 12.56988 3.582687 30.419423 21.163571
2003-05-05 07:06:54 51°14.36 2°55.08 12.57606 3.566777 30.259411 21.197281
2003-05-05 07:06:58 51°14.37 2°55.06 12.57606 3.566777 30.259411 21.197281
2003-05-05 07:07:02 51°14.38 2°55.05 12.563294 3.552869 30.112827 21.298409
2003-05-05 07:07:08 51°14.39 2°55.03 12.545337 3.536433 29.948305 21.2647
2003-05-05 07:07:14 51°14.41 2°55.01 12.514284 3.51041 29.687861 21.534375
2003-05-05 07:07:18 51°14.42 2°55 12.489359 3.487865 29.460555 21.466956
2003-05-05 07:07:22 51°14.43 2°54.98 12.459545 3.46827 29.261305 21.568084
2003-05-05 07:07:28 51°14.44 2°54.97 12.459545 3.46827 29.261305 21.568084
2003-05-05 07:07:34 51°14.46 2°54.95 12.42479 3.465004 29.224707 21.500665
2003-05-05 07:07:38 51°14.47 2°54.94 12.395851 3.475433 29.32348 21.601794
2003-05-05 07:07:42 51°14.48 2°54.92 12.366765 3.492395 29.491395 21.770341
2003-05-05 07:07:48 51°14.5 2°54.9 12.338253 3.526108 29.821605 22.040016
2003-05-05 07:07:54 51°14.51 2°54.88 12.32105 3.554765 30.111928 22.646785
2003-05-05 07:07:58 51°14.52 2°54.87 12.32105 3.554765 30.111928 22.646785
2003-05-05 07:08:02 51°14.53 2°54.86 12.30973 3.584478 30.409784 24.804187
2003-05-05 07:08:08 51°14.55 2°54.84 12.295464 3.614719 30.722282 28.276255
2003-05-05 07:08:14 51°14.57 2°54.83 12.270275 3.64886 31.059709 30.635913
2003-05-05 07:08:18 51°14.58 2°54.82 12.243264 3.674468 31.322926 31.41123
2003-05-05 07:08:22 51°14.59 2°54.81 12.226716 3.704924 31.637414 30.635913
2003-05-05 07:08:28 51°14.61 2°54.79 12.226716 3.704924 31.637414 30.635913
2003-05-05 07:08:34 51°14.63 2°54.77 12.211117 3.727899 31.8743 29.69205
2003-05-05 07:08:38 51°14.64 2°54.76 12.193654 3.742338 32.023028 28.343674
2003-05-05 07:08:42 51°14.65 2°54.75 12.186214 3.758779 32.193724 26.2874
2003-05-05 07:08:48 51°14.67 2°54.74 12.17909 3.784285 32.456622 24.703059
2003-05-05 07:08:54 51°14.68 2°54.72 12.166566 3.803469 32.65418 22.815332
2003-05-05 07:08:58 51°14.7 2°54.71 12.166566 3.803469 32.65418 22.815332
2003-05-05 07:09:02 51°14.71 2°54.7 12.162663 3.82086 32.842472 21.298409
2003-05-05 07:09:08 51°14.73 2°54.68 12.159486 3.831507 32.960962 19.815195
2003-05-05 07:09:14 51°14.74 2°54.67 12.158487 3.843102 33.081795 19.00617
2003-05-05 07:09:18 51°14.75 2°54.66 12.161256 3.850164 33.16134 18.129725
2003-05-05 07:09:22 51°14.77 2°54.65 24.724149 3.85554 33.220591 17.185862
2003-05-05 07:09:28 51°14.78 2°54.63 24.724149 3.85554 33.220591 17.185862
2003-05-05 07:09:34 51°14.8 2°54.61 13.808484 3.864079 33.311657 16.680221
2003-05-05 07:09:38 51°14.81 2°54.6 13.734673 3.868822 33.363528 16.444255
2003-05-05 07:09:42 51°14.83 2°54.59 13.623627 3.87209 33.398438 15.904905
2003-05-05 07:09:48 51°14.84 2°54.58 13.656964 3.875147 33.431333 15.803777
2003-05-05 07:09:54 51°14.86 2°54.56 13.431179 3.875885 33.43913 15.432973
2003-05-05 07:09:58 51°14.87 2°54.55 13.431179 3.875885 33.43913 15.432973
2003-05-05 07:10:02 51°14.89 2°54.54 14.072492 3.877677 33.45917 15.264426
2003-05-05 07:10:08 51°14.9 2°54.53 13.883806 3.877993 33.464317 14.994751
2003-05-05 07:10:14 51°14.92 2°54.51 13.684164 3.880629 33.491071 14.758785
2003-05-05 07:10:18 51°14.93 2°54.5 13.964389 3.879364 33.48101 14.4554
2003-05-05 07:10:22 51°14.94 2°54.49 13.704301 3.883475 33.525486 14.084597
2003-05-05 07:10:28 51°14.96 2°54.47 13.704301 3.883475 33.525486 14.084597
2003-05-05 07:10:34 51°14.98 2°54.46 13.445204 3.885056 33.544925 13.444118
2003-05-05 07:10:38 51°14.99 2°54.45 14.023781 3.88727 33.573279 13.039606
2003-05-05 07:10:42 51°15 2°54.44 13.985856 3.887481 33.583768 12.533965
2003-05-05 07:10:48 51°15.02 2°54.42 14.088898 3.889168 33.61201 12.297999
2003-05-05 07:10:54 51°15.04 2°54.41 13.898091 3.88959 33.628081 11.960905
2003-05-05 07:10:58 51°15.05 2°54.4 13.898091 3.88959 33.628081 11.960905
2003-05-05 07:11:02 51°15.06 2°54.39 13.564368 3.889484 33.632719 11.792358
2003-05-05 07:11:08 51°15.08 2°54.37 13.562502 3.889274 33.634929 11.65752
2003-05-05 07:11:14 51°15.1 2°54.36 13.807864 3.888114 33.627991 11.421554
2003-05-05 07:11:18 51°15.11 2°54.35 13.695741 3.888114 33.631526 11.387845
2003-05-05 07:11:22 51°15.12 2°54.33 14.196757 3.887798 33.634842 11.185589
2003-05-05 07:11:28 51°15.14 2°54.32 14.196757 3.887798 33.634842 11.185589
2003-05-05 07:11:34 51°15.16 2°54.3 13.575478 3.887903 33.641519 11.050751
2003-05-05 07:11:38 51°15.17 2°54.29 13.019081 3.887904 33.647181 11.11817
2003-05-05 07:11:42 51°15.18 2°54.28 13.671298 3.888325 33.658331 10.983332
2003-05-05 07:11:48 51°15.2 2°54.27 14.384482 3.888431 33.66289 10.915913
2003-05-05 07:11:54 51°15.22 2°54.25 13.359091 3.888115 33.663381 10.882204
2003-05-05 07:11:58 51°15.23 2°54.24 13.359091 3.888115 33.663381 10.882204
2003-05-05 07:12:02 51°15.25 2°54.23 13.712771 3.888747 33.674448 10.747366
2003-05-05 07:12:08 51°15.27 2°54.22 13.405614 3.88822 33.675031 10.578819
2003-05-05 07:12:14 51°15.28 2°54.2 13.930585 3.889485 33.692211 10.5114
2003-05-05 07:12:18 51°15.3 2°54.19 14.208423 3.888642 33.694002 10.275435
2003-05-05 07:12:22 51°15.31 2°54.18 13.507459 3.889907 33.711904 9.938341
2003-05-05 07:12:28 51°15.33 2°54.16 13.507459 3.889907 33.711904 9.938341
2003-05-05 07:12:34 51°15.35 2°54.15 13.758916 3.890223 33.722066 9.769794
2003-05-05 07:12:38 51°15.36 2°54.14 13.499809 3.890856 33.736 9.297862
2003-05-05 07:12:42 51°15.37 2°54.12 13.896189 3.891594 33.75808 8.994477
2003-05-05 07:12:48 51°15.39 2°54.11 13.489443 3.892332 33.77733 8.82593
2003-05-05 07:12:54 51°15.41 2°54.09 13.595737 3.891911 33.786797 8.556255
2003-05-05 07:12:58 51°15.42 2°54.08 13.595737 3.891911 33.786797 8.556255
2003-05-05 07:13:02 51°15.43 2°54.07 13.405703 3.891805 33.798621 8.320289
2003-05-05 07:13:08 51°15.45 2°54.05 13.984796 3.891595 33.801577 8.219161
2003-05-05 07:13:14 51°15.47 2°54.03 13.06123 3.891489 33.806984 8.151742
2003-05-05 07:13:18 51°15.48 2°54.02 13.78098 3.890541 33.801366 7.949486
2003-05-05 07:13:22 51°15.5 2°54.01 13.648709 3.891279 33.81423 7.848358
2003-05-05 07:13:28 51°15.52 2°54 13.648709 3.891279 33.81423 7.848358
2003-05-05 07:13:34 51°15.53 2°53.98 13.660914 3.890646 33.809532 7.612392
2003-05-05 07:13:38 51°15.55 2°53.97 12.847078 3.889908 33.808814 7.511264
2003-05-05 07:13:42 51°15.56 2°53.96 13.740879 3.889592 33.810038 7.106751
2003-05-05 07:13:48 51°15.58 2°53.94 13.14169 3.887906 33.805845 6.837076
2003-05-05 07:13:54 51°15.6 2°53.92 13.138648 3.887695 33.813815 6.533691
2003-05-05 07:13:58 51°15.61 2°53.91 13.138648 3.887695 33.813815 6.533691
2003-05-05 07:14:02 51°15.62 2°53.9 13.128808 3.888011 33.830484 6.162888
2003-05-05 07:14:08 51°15.64 2°53.89 13.527739 3.887906 33.845225 5.960631
2003-05-05 07:14:14 51°15.66 2°53.87 13.561613 3.887274 33.85271 5.758375
2003-05-05 07:14:18 51°15.67 2°53.86 13.118072 3.887274 33.867782 5.657247
2003-05-05 07:14:22 51°15.68 2°53.85 13.516444 3.887485 33.882762 5.522409
2003-05-05 07:14:28 51°15.7 2°53.83 13.516444 3.887485 33.882762 5.522409
2003-05-05 07:14:34 51°15.72 2°53.81 13.408109 3.88738 33.888207 5.387571
2003-05-05 07:14:38 51°15.73 2°53.8 13.48664 3.88738 33.897556 5.219024
2003-05-05 07:14:42 51°15.74 2°53.79 13.600845 3.887169 33.903421 5.117896
2003-05-05 07:14:48 51°15.76 2°53.77 13.3545 3.886959 33.90569 4.949349
2003-05-05 07:14:54 51°15.78 2°53.76 13.362212 3.887064 33.911755 4.848221
2003-05-05 07:14:58 51°15.79 2°53.75 13.362212 3.887064 33.911755 4.848221
2003-05-05 07:15:02 51°15.81 2°53.74 14.313498 3.886221 33.907872 4.848221
2003-05-05 07:15:08 51°15.83 2°53.72 11.787902 3.885905 33.906236 4.91564
2003-05-05 07:15:14 51°15.84 2°53.7 11.795067 3.885904 33.899756 4.848221
2003-05-05 07:15:18 51°15.86 2°53.69 11.802232 3.884956 33.890528 4.91564
2003-05-05 07:15:22 51°15.87 2°53.68 11.808803 3.885061 33.885797 4.983059
2003-05-05 07:15:28 51°15.89 2°53.66 11.808803 3.885061 33.885797 4.983059
2003-05-05 07:15:34 51°15.91 2°53.65 11.814324 3.885061 33.878605 4.949349
2003-05-05 07:15:38 51°15.92 2°53.64 11.820939 3.885588 33.878696 5.084187
2003-05-05 07:15:42 51°15.93 2°53.62 11.825318 3.88485 33.866492 5.185315
2003-05-05 07:15:48 51°15.95 2°53.61 11.827325 3.88485 33.860026 5.387571
2003-05-05 07:15:54 51°15.97 2°53.59 11.830062 3.885271 33.85766 5.4887
2003-05-05 07:15:58 51°15.98 2°53.58 11.830062 3.885271 33.85766 5.4887
2003-05-05 07:16:02 51°16 2°53.57 11.832617 3.885482 33.853246 5.556118
2003-05-05 07:16:08 51°16.02 2°53.55 11.835536 3.885693 33.851705 5.556118
2003-05-05 07:16:14 51°16.04 2°53.53 11.837679 3.885271 33.841153 5.758375
2003-05-05 07:16:18 51°16.05 2°53.52 11.839777 3.885587 33.83992 5.893212
2003-05-05 07:16:22 51°16.06 2°53.51 11.841556 3.885271 33.833264 6.02805
2003-05-05 07:16:28 51°16.08 2°53.49 11.841556 3.885271 33.833264 6.02805
2003-05-05 07:16:34 51°16.1 2°53.48 11.84151 3.885587 33.834184 6.230306
2003-05-05 07:16:38 51°16.11 2°53.47 11.843928 3.88506 33.827633 6.398853
2003-05-05 07:16:42 51°16.13 2°53.45 11.844247 3.885482 33.829576 6.331435
2003-05-05 07:16:48 51°16.15 2°53.44 11.846116 3.885903 33.830802 6.466272
2003-05-05 07:16:54 51°16.17 2°53.42 11.849582 3.885376 33.82282 6.297725
2003-05-05 07:16:58 51°16.18 2°53.41 11.849582 3.885376 33.82282 6.297725
2003-05-05 07:17:02 51°16.19 2°53.4 11.854416 3.885376 33.822104 6.297725
2003-05-05 07:17:08 51°16.21 2°53.38 11.858747 3.885482 33.823843 6.196597
2003-05-05 07:17:14 51°16.23 2°53.36 11.862076 3.885271 33.817499 5.994341
2003-05-05 07:17:18 51°16.24 2°53.35 11.863899 3.885693 33.822307 5.825794
2003-05-05 07:17:22 51°16.26 2°53.34 11.862896 3.885903 33.820771 5.724665
2003-05-05 07:17:28 51°16.28 2°53.32 11.862896 3.885903 33.820771 5.724665
2003-05-05 07:17:34 51°16.29 2°53.31 11.863079 3.886009 33.821078 5.724665
2003-05-05 07:17:38 51°16.31 2°53.3 11.863534 3.886957 33.82527 5.758375
2003-05-05 07:17:42 51°16.32 2°53.29 25.5366 3.886641 33.819337 6.398853
2003-05-05 07:17:48 51°16.34 2°53.27 14.136989 3.886641 33.815758 7.443845
2003-05-05 07:17:54 51°16.36 2°53.25 13.261931 3.886536 33.814019 8.758512
2003-05-05 07:17:58 51°16.37 2°53.24 13.261931 3.886536 33.814019 8.758512
2003-05-05 07:18:02 51°16.39 2°53.23 13.51591 3.886641 33.81361 9.567537
2003-05-05 07:18:08 51°16.41 2°53.21 13.621806 3.886746 33.815349 9.769794
2003-05-05 07:18:14 51°16.43 2°53.2 13.692015 3.886536 33.815451 9.769794
2003-05-05 07:18:18 51°16.44 2°53.18 13.508616 3.885587 33.806964 9.297862
2003-05-05 07:18:22 51°16.45 2°53.17 13.648443 3.885798 33.809009 8.85964
2003-05-05 07:18:28 51°16.47 2°53.16 13.648443 3.885798 33.809009 8.85964
2003-05-05 07:18:34 51°16.49 2°53.14 13.569923 3.885798 33.81044 8.387708
2003-05-05 07:18:38 51°16.51 2°53.13 13.138425 3.885587 33.810543 7.848358
2003-05-05 07:18:42 51°16.52 2°53.12 13.184833 3.885692 33.813713 7.309007
2003-05-05 07:18:48 51°16.54 2°53.1 13.252644 3.885271 33.811054 6.904494
2003-05-05 07:18:54 51°16.56 2°53.08 13.355302 3.885376 33.812793 6.668529
2003-05-05 07:18:58 51°16.57 2°53.07 13.355302 3.885376 33.812793 6.668529
2003-05-05 07:19:02 51°16.58 2°53.06 13.489488 3.884322 33.808293 6.466272
2003-05-05 07:19:08 51°16.6 2°53.04 13.193771 3.884322 33.813306 6.162888
2003-05-05 07:19:14 51°16.62 2°53.03 13.477207 3.883795 33.813204 6.095469
2003-05-05 07:19:18 51°16.64 2°53.01 13.617011 3.88369 33.821497 5.825794
2003-05-05 07:19:22 51°16.65 2°53 13.426548 3.882741 33.818736 5.690956
2003-05-05 07:19:28 51°16.67 2°52.99 13.426548 3.882741 33.818736 5.690956
2003-05-05 07:19:34 51°16.69 2°52.97 13.196721 3.882636 33.8256 5.623537
2003-05-05 07:19:38 51°16.7 2°52.96 13.592583 3.881898 33.823453 5.556118
2003-05-05 07:19:42 51°16.72 2°52.95 13.112837 3.881371 33.824072 5.421281
2003-05-05 07:19:48 51°16.74 2°52.93 13.688555 3.881266 33.833813 5.353862
2003-05-05 07:19:54 51°16.76 2°52.91 13.027101 3.881477 33.84017 5.084187
2003-05-05 07:19:58 51°16.77 2°52.9 13.027101 3.881477 33.84017 5.084187
2003-05-05 07:20:02 51°16.78 2°52.89 12.874429 3.881266 33.843867 5.084187
2003-05-05 07:20:08 51°16.8 2°52.88 13.638988 3.880212 33.841521 4.91564
2003-05-05 07:20:14 51°16.82 2°52.86 13.236435 3.87958 33.841119 4.780802
2003-05-05 07:20:18 51°16.83 2°52.85 13.051244 3.879263 33.845231 4.780802
2003-05-05 07:20:22 51°16.85 2°52.84 12.822412 3.878526 33.846681 4.747093
2003-05-05 07:20:28 51°16.87 2°52.82 12.822412 3.878526 33.846681 4.747093
2003-05-05 07:20:34 51°16.89 2°52.81 13.187872 3.877788 33.843817 4.612255
2003-05-05 07:20:38 51°16.9 2°52.79 12.887988 3.877472 33.842897 4.578546
2003-05-05 07:20:42 51°16.91 2°52.78 13.506347 3.877155 33.842697 4.443708
2003-05-05 07:20:48 51°16.93 2°52.77 12.876674 3.876945 33.844242 4.308871
2003-05-05 07:20:54 51°16.95 2°52.75 12.941255 3.877366 33.853383 4.207742
2003-05-05 07:20:58 51°16.96 2°52.74 12.941255 3.877366 33.853383 4.207742
2003-05-05 07:21:02 51°16.98 2°52.73 12.638815 3.876101 33.844668 4.106614
2003-05-05 07:21:08 51°17 2°52.71 13.442132 3.875785 33.845188 4.106614
2003-05-05 07:21:14 51°17.02 2°52.69 13.471377 3.876102 33.853306 4.207742
2003-05-05 07:21:18 51°17.03 2°52.68 13.211466 3.87568 33.85424 4.275161
2003-05-05 07:21:22 51°17.04 2°52.67 13.390288 3.875048 33.852402 4.443708
2003-05-05 07:21:28 51°17.06 2°52.65 13.390288 3.875048 33.852402 4.443708
2003-05-05 07:21:34 51°17.08 2°52.64 13.019081 3.875048 33.858165 4.578546
2003-05-05 07:21:38 51°17.1 2°52.63 13.526494 3.874732 33.86229 4.679674
2003-05-05 07:21:42 51°17.11 2°52.62 12.973499 3.875048 33.870418 4.645965
2003-05-05 07:21:48 51°17.13 2°52.6 13.084957 3.874837 33.874132 4.645965
2003-05-05 07:21:54 51°17.15 2°52.58 13.229825 3.873994 33.871683 4.477418
2003-05-05 07:21:58 51°17.16 2°52.57 13.229825 3.873994 33.871683 4.477418
2003-05-05 07:22:02 51°17.18 2°52.56 13.669966 3.873783 33.8754 4.308871
2003-05-05 07:22:08 51°17.2 2°52.54 13.70266 3.874099 33.882091 4.106614
2003-05-05 07:22:14 51°17.21 2°52.53 13.368898 3.873467 33.87809 3.904358
2003-05-05 07:22:18 51°17.23 2°52.52 13.626424 3.873783 33.883339 3.80323
2003-05-05 07:22:22 51°17.24 2°52.5 13.439817 3.873889 33.886533 3.735811
2003-05-05 07:22:28 51°17.26 2°52.49 13.439817 3.873889 33.886533 3.735811
2003-05-05 07:22:34 51°17.28 2°52.47 13.215844 3.873889 33.888699 3.634683
2003-05-05 07:22:38 51°17.29 2°52.46 13.099369 3.873256 33.884697 3.533554
2003-05-05 07:22:42 51°17.31 2°52.45 13.19891 3.873889 33.891588 3.466136
2003-05-05 07:22:48 51°17.33 2°52.43 13.11664 3.873678 33.892421 3.432426
2003-05-05 07:22:54 51°17.35 2°52.41 13.179738 3.874732 33.904871 3.297589
2003-05-05 07:22:58 51°17.36 2°52.4 13.179738 3.874732 33.904871 3.297589
2003-05-05 07:23:02 51°17.37 2°52.39 12.911777 3.874838 33.908068 3.331298
2003-05-05 07:23:08 51°17.4 2°52.38 13.190464 3.874838 33.913128 3.398717
2003-05-05 07:23:14 51°17.42 2°52.37 12.701781 3.875048 33.919524 3.533554
2003-05-05 07:23:18 51°17.43 2°52.37 13.34692 3.874943 33.925006 3.76952
2003-05-05 07:23:22 51°17.45 2°52.36 13.24943 3.874943 33.930796 4.241452
2003-05-05 07:23:28 51°17.47 2°52.35 13.24943 3.874943 33.930796 4.241452
2003-05-05 07:23:34 51°17.49 2°52.35 12.882511 3.874522 33.936815 4.578546
2003-05-05 07:23:38 51°17.5 2°52.34 13.307183 3.873152 33.936469 4.88193
2003-05-05 07:23:42 51°17.52 2°52.34 13.117446 3.872519 33.939711 5.219024
2003-05-05 07:23:48 51°17.54 2°52.33 12.955518 3.871465 33.938108 5.286443
2003-05-05 07:23:54 51°17.56 2°52.32 13.170977 3.871149 33.94662 5.252734
2003-05-05 07:23:58 51°17.58 2°52.32 13.170977 3.871149 33.94662 5.252734
2003-05-05 07:24:02 51°17.59 2°52.31 13.591739 3.869779 33.94483 5.016768
2003-05-05 07:24:08 51°17.61 2°52.3 12.995913 3.868514 33.943345 4.780802
2003-05-05 07:24:14 51°17.63 2°52.3 12.769409 3.866722 33.939608 4.780802
2003-05-05 07:24:18 51°17.65 2°52.29 13.050438 3.866722 33.949051 4.713383
2003-05-05 07:24:22 51°17.66 2°52.29 12.967132 3.864614 33.939313 4.612255
2003-05-05 07:24:28 51°17.69 2°52.28 12.967132 3.864614 33.939313 4.612255
2003-05-05 07:24:34 51°17.71 2°52.28 13.075422 3.863771 33.940504 4.511127
2003-05-05 07:24:38 51°17.72 2°52.28 13.10438 3.86356 33.950073 4.511127
2003-05-05 07:24:42 51°17.74 2°52.28 13.175492 3.861031 33.936198 4.376289
2003-05-05 07:24:48 51°17.76 2°52.28 13.237194 3.859977 33.936053 4.34258
2003-05-05 07:24:54 51°17.78 2°52.28 12.861316 3.858817 33.934148 4.207742
2003-05-05 07:24:58 51°17.79 2°52.28 12.861316 3.858817 33.934148 4.207742
2003-05-05 07:25:02 51°17.81 2°52.28 12.820299 3.858607 33.936448 4.039195
2003-05-05 07:25:08 51°17.83 2°52.28 12.477751 3.857658 33.934426 3.904358
2003-05-05 07:25:14 51°17.85 2°52.28 13.10881 3.857869 33.943776 3.870648
2003-05-05 07:25:18 51°17.87 2°52.28 13.506926 3.857658 33.947537 3.80323
2003-05-05 07:25:22 51°17.88 2°52.28 12.914918 3.856077 33.939311 3.76952
2003-05-05 07:25:28 51°17.9 2°52.29 12.914918 3.856077 33.939311 3.76952
2003-05-05 07:25:34 51°17.92 2°52.29 12.807491 3.855866 33.944531 3.735811
2003-05-05 07:25:38 51°17.94 2°52.3 12.878829 3.85418 33.93381 3.80323
2003-05-05 07:25:42 51°17.95 2°52.3 13.245857 3.854391 33.938795 3.80323
2003-05-05 07:25:48 51°17.97 2°52.31 12.652242 3.855234 33.953637 3.971777
2003-05-05 07:25:54 51°17.99 2°52.33 12.79886 3.855656 33.958506 3.971777
2003-05-05 07:25:58 51°18 2°52.33 12.79886 3.855656 33.958506 3.971777
2003-05-05 07:26:02 51°18.02 2°52.34 12.612268 3.85534 33.95905 4.005486
2003-05-05 07:26:08 51°18.04 2°52.36 13.162974 3.856815 33.975 4.039195
2003-05-05 07:26:14 51°18.05 2°52.37 12.833196 3.854496 33.952959 4.106614
2003-05-05 07:26:18 51°18.07 2°52.39 12.350746 3.855656 33.966534 4.241452
2003-05-05 07:26:22 51°18.08 2°52.4 13.232817 3.855972 33.96964 4.207742
2003-05-05 07:26:28 51°18.1 2°52.42 13.232817 3.855972 33.96964 4.207742
2003-05-05 07:26:34 51°18.11 2°52.43 12.978117 3.85534 33.97 4.308871
2003-05-05 07:26:38 51°18.13 2°52.45 12.232248 3.855972 33.976942 4.511127
2003-05-05 07:26:42 51°18.14 2°52.46 12.71587 3.855761 33.974871 4.511127
2003-05-05 07:26:48 51°18.16 2°52.48 12.009583 3.855867 33.978829 4.578546
2003-05-05 07:26:54 51°18.17 2°52.5 13.081152 3.856183 33.981935 4.645965
2003-05-05 07:26:58 51°18.18 2°52.51 13.081152 3.856183 33.981935 4.645965
2003-05-05 07:27:02 51°18.2 2°52.52 12.638679 3.856605 33.987539 4.713383
2003-05-05 07:27:08 51°18.21 2°52.54 12.343459 3.855551 33.976453 4.780802
2003-05-05 07:27:14 51°18.23 2°52.56 13.371483 3.856078 33.984553 4.747093
2003-05-05 07:27:18 51°18.24 2°52.57 13.408331 3.855867 33.984674 4.747093
2003-05-05 07:27:22 51°18.25 2°52.58 12.485159 3.85534 33.981688 4.848221
2003-05-05 07:27:28 51°18.27 2°52.6 12.485159 3.85534 33.981688 4.848221
2003-05-05 07:27:34 51°18.29 2°52.62 13.331091 3.855129 33.977424 4.88193
2003-05-05 07:27:38 51°18.3 2°52.63 13.186934 3.855656 33.986988 4.88193
2003-05-05 07:27:42 51°18.31 2°52.65 12.815176 3.855762 33.988023 4.679674
2003-05-05 07:27:48 51°18.33 2°52.67 12.112084 3.854391 33.975289 4.645965
2003-05-05 07:27:54 51°18.34 2°52.69 12.334179 3.854497 33.979248 4.679674
2003-05-05 07:27:58 51°18.35 2°52.71 12.334179 3.854497 33.979248 4.679674
2003-05-05 07:28:02 51°18.36 2°52.72 12.996586 3.854708 33.98132 4.612255
2003-05-05 07:28:08 51°18.38 2°52.75 12.665666 3.855129 33.984732 4.578546
2003-05-05 07:28:14 51°18.39 2°52.77 13.363103 3.854497 33.98071 4.544836
2003-05-05 07:28:18 51°18.4 2°52.78 13.032522 3.853864 33.974495 4.612255
2003-05-05 07:28:22 51°18.41 2°52.8 12.146322 3.854286 33.979369 4.612255
2003-05-05 07:28:28 51°18.43 2°52.83 12.146322 3.854286 33.979369 4.612255
2003-05-05 07:28:34 51°18.44 2°52.85 13.067006 3.854497 33.984365 4.679674
2003-05-05 07:28:38 51°18.45 2°52.87 12.436904 3.853759 33.976382 4.612255
2003-05-05 07:28:42 51°18.45 2°52.89 13.136949 3.852599 33.965718 4.612255
2003-05-05 07:28:48 51°18.46 2°52.92 12.87856 3.854181 33.981988 4.679674
2003-05-05 07:28:54 51°18.47 2°52.95 12.136788 3.854181 33.981257 4.645965
2003-05-05 07:28:58 51°18.48 2°52.97 12.136788 3.854181 33.981257 4.645965
2003-05-05 07:29:02 51°18.49 2°52.99 12.319964 3.853337 33.974431 4.612255
2003-05-05 07:29:08 51°18.5 2°53.01 12.391057 3.852389 33.966569 4.544836
2003-05-05 07:29:14 51°18.51 2°53.04 12.95915 3.852599 33.968641 4.578546
2003-05-05 07:29:18 51°18.51 2°53.06 12.977848 3.852916 33.975404 4.713383
2003-05-05 07:29:22 51°18.52 2°53.08 13.23581 3.85281 33.97583 4.814512
2003-05-05 07:29:28 51°18.53 2°53.11 13.23581 3.85281 33.97583 4.814512
2003-05-05 07:29:34 51°18.54 2°53.14 12.498436 3.852178 33.971806 4.848221
2003-05-05 07:29:38 51°18.55 2°53.16 12.937128 3.851335 33.963516 4.848221
2003-05-05 07:29:42 51°18.55 2°53.18 12.644672 3.851967 33.973389 4.713383
2003-05-05 07:29:48 51°18.56 2°53.21 13.523025 3.851546 33.972169 4.679674
2003-05-05 07:29:54 51°18.57 2°53.23 12.494372 3.851546 33.971437 4.679674
2003-05-05 07:29:58 51°18.58 2°53.25 12.494372 3.851546 33.971437 4.679674
2003-05-05 07:30:02 51°18.59 2°53.27 11.863534 3.850175 33.960158 4.612255
2003-05-05 07:30:08 51°18.6 2°53.3 12.531843 3.85007 33.960584 4.544836
2003-05-05 07:30:14 51°18.61 2°53.33 12.790678 3.849543 33.956864 4.409999
2003-05-05 07:30:18 51°18.62 2°53.35 12.533017 3.849648 33.959362 4.174033
2003-05-05 07:30:22 51°18.62 2°53.37 13.158816 3.849227 33.954485 3.904358
2003-05-05 07:30:28 51°18.63 2°53.4 13.158816 3.849227 33.954485 3.904358
2003-05-05 07:30:34 51°18.64 2°53.43 12.863561 3.849227 33.954485 3.836939
2003-05-05 07:30:38 51°18.65 2°53.44 12.38572 3.849227 33.953023 3.702101
2003-05-05 07:30:42 51°18.66 2°53.46 12.203543 3.848383 33.946194 3.668392
2003-05-05 07:30:48 51°18.67 2°53.49 12.834858 3.848278 33.943696 3.567264
2003-05-05 07:30:54 51°18.68 2°53.52 12.945561 3.84754 33.937903 3.398717
2003-05-05 07:30:58 51°18.69 2°53.54 12.945561 3.84754 33.937903 3.398717
2003-05-05 07:31:02 51°18.69 2°53.56 12.431797 3.847856 33.940281 3.297589
2003-05-05 07:31:08 51°18.7 2°53.59 13.093819 3.849121 33.952718 3.162751
2003-05-05 07:31:14 51°18.71 2°53.62 12.728426 3.846697 33.92669 3.095332
2003-05-05 07:31:18 51°18.72 2°53.64 12.879637 3.847329 33.932908 2.926785
2003-05-05 07:31:22 51°18.73 2°53.66 12.916534 3.847329 33.932177 2.926785
2003-05-05 07:31:28 51°18.74 2°53.68 12.916534 3.847329 33.932177 2.926785
2003-05-05 07:31:34 51°18.75 2°53.71 12.955742 3.847329 33.931447 2.825657
2003-05-05 07:31:38 51°18.75 2°53.73 12.145959 3.848594 33.943151 2.859366
2003-05-05 07:31:42 51°18.76 2°53.75 12.109995 3.848805 33.942302 2.825657
2003-05-05 07:31:48 51°18.77 2°53.78 13.47556 3.849437 33.947788 2.825657
2003-05-05 07:31:54 51°18.78 2°53.81 11.892661 3.848805 33.937919 2.758238
2003-05-05 07:31:58 51°18.79 2°53.83 11.892661 3.848805 33.937919 2.758238
2003-05-05 07:32:02 51°18.79 2°53.85 12.267556 3.847856 33.926405 2.758238
2003-05-05 07:32:08 51°18.81 2°53.88 12.159259 3.849753 33.943591 2.65711
2003-05-05 07:32:14 51°18.82 2°53.91 13.157922 3.847961 33.924521 2.690819
2003-05-05 07:32:18 51°18.82 2°53.92 12.865403 3.849332 33.937987 2.724529
2003-05-05 07:32:22 51°18.83 2°53.94 12.202726 3.849226 33.934031 2.724529
2003-05-05 07:32:28 51°18.84 2°53.97 12.202726 3.849226 33.934031 2.724529
2003-05-05 07:32:34 51°18.85 2°54 12.832746 3.85007 33.939397 2.65711
2003-05-05 07:32:38 51°18.86 2°54.02 11.945775 3.849332 33.929957 2.690819
2003-05-05 07:32:42 51°18.86 2°54.04 12.946189 3.84891 33.923625 2.6234
2003-05-05 07:32:48 51°18.87 2°54.07 12.096958 3.85028 33.933439 2.690819
2003-05-05 07:32:54 51°18.88 2°54.1 12.023729 3.849332 33.92339 2.690819
2003-05-05 07:32:58 51°18.89 2°54.12 12.023729 3.849332 33.92339 2.690819
2003-05-05 07:33:02 51°18.9 2°54.14 12.581878 3.85028 33.92979 2.65711
2003-05-05 07:33:08 51°18.91 2°54.17 12.324265 3.850069 33.92699 2.758238
2003-05-05 07:33:14 51°18.92 2°54.2 12.512523 3.851018 33.93412 2.724529
2003-05-05 07:33:18 51°18.92 2°54.22 12.141873 3.850807 33.92986 2.690819
2003-05-05 07:33:22 51°18.93 2°54.24 12.254505 3.850913 33.932355 2.690819
2003-05-05 07:33:28 51°18.94 2°54.27 12.254505 3.850913 33.932355 2.690819
2003-05-05 07:33:34 51°18.95 2°54.3 13.104828 3.851545 33.936378 2.690819
2003-05-05 07:33:38 51°18.96 2°54.32 12.221275 3.849121 33.911109 2.758238
2003-05-05 07:33:42 51°18.96 2°54.34 12.482629 3.850913 33.926519 2.724529
2003-05-05 07:33:48 51°18.97 2°54.37 13.000709 3.850807 33.925484 2.758238
2003-05-05 07:33:54 51°18.98 2°54.4 13.003353 3.850491 33.919462 2.724529
2003-05-05 07:33:58 51°18.99 2°54.42 13.003353 3.850491 33.919462 2.724529
2003-05-05 07:34:02 51°19 2°54.44 12.601403 3.851334 33.927743 2.690819
2003-05-05 07:34:08 51°19.01 2°54.47 12.71686 3.851861 33.930001 2.791947
2003-05-05 07:34:14 51°19.02 2°54.5 12.903429 3.85165 33.926473 2.690819
2003-05-05 07:34:18 51°19.02 2°54.52 12.942511 3.851756 33.927507 2.724529
2003-05-05 07:34:22 51°19.03 2°54.54 13.018499 3.851439 33.920758 2.724529
2003-05-05 07:34:28 51°19.04 2°54.57 13.018499 3.851439 33.920758 2.724529
2003-05-05 07:34:34 51°19.05 2°54.6 13.131224 3.851439 33.917114 2.758238
2003-05-05 07:34:38 51°19.06 2°54.62 12.841642 3.85165 33.918454 2.791947
2003-05-05 07:34:42 51°19.07 2°54.64 13.355792 3.852283 33.92029 2.758238
2003-05-05 07:34:48 51°19.08 2°54.67 12.662333 3.852704 33.923699 2.791947
2003-05-05 07:34:54 51°19.09 2°54.7 13.070766 3.85281 33.922548 2.791947
2003-05-05 07:34:58 51°19.09 2°54.72 13.070766 3.85281 33.922548 2.791947
2003-05-05 07:35:02 51°19.1 2°54.74 13.239829 3.85281 33.918177 2.724529
2003-05-05 07:35:08 51°19.11 2°54.77 12.67017 3.853442 33.923654 2.825657
2003-05-05 07:35:14 51°19.12 2°54.8 12.26597 3.852704 33.910588 2.791947
2003-05-05 07:35:18 51°19.13 2°54.82 13.045063 3.853758 33.919473 2.825657
2003-05-05 07:35:22 51°19.13 2°54.84 12.717355 3.852704 33.907675 2.791947
2003-05-05 07:35:28 51°19.14 2°54.87 12.717355 3.852704 33.907675 2.791947
2003-05-05 07:35:34 51°19.15 2°54.91 12.461849 3.853653 33.913342 2.859366
2003-05-05 07:35:38 51°19.16 2°54.92 12.650485 3.85418 33.917056 2.791947
2003-05-05 07:35:42 51°19.17 2°54.94 12.356267 3.854812 33.921075 2.859366
2003-05-05 07:35:48 51°19.18 2°54.98 12.98798 3.853863 33.909586 2.825657
2003-05-05 07:35:54 51°19.19 2°55.01 12.805468 3.854285 33.910082 2.926785
2003-05-05 07:35:58 51°19.2 2°55.03 12.805468 3.854285 33.910082 2.926785
2003-05-05 07:36:02 51°19.2 2°55.05 12.144189 3.855128 33.915441 2.893076
2003-05-05 07:36:08 51°19.21 2°55.08 13.109571 3.85555 33.915937 2.859366
2003-05-05 07:36:14 51°19.22 2°55.11 13.077123 3.855444 33.914176 2.893076
2003-05-05 07:36:18 51°19.23 2°55.13 13.121651 3.856498 33.920873 2.893076
2003-05-05 07:36:22 51°19.24 2°55.15 13.018723 3.856288 33.915896 2.859366
2003-05-05 07:36:28 51°19.25 2°55.18 13.018723 3.856288 33.915896 2.859366
2003-05-05 07:36:34 51°19.26 2°55.21 13.17272 3.857025 33.919492 2.893076
2003-05-05 07:36:38 51°19.26 2°55.23 13.179202 3.857025 33.918037 2.994204
2003-05-05 07:36:42 51°19.27 2°55.25 13.184208 3.856709 33.909846 2.926785
2003-05-05 07:36:48 51°19.28 2°55.28 12.677691 3.857025 33.908582 3.027913
2003-05-05 07:36:54 51°19.29 2°55.31 13.272064 3.857763 33.910724 2.994204
2003-05-05 07:36:58 51°19.3 2°55.33 13.272064 3.857763 33.910724 2.994204
2003-05-05 07:37:02 51°19.3 2°55.35 13.061364 3.857868 33.905216 2.960494
2003-05-05 07:37:08 51°19.32 2°55.38 13.79914 3.858501 33.905599 2.960494
2003-05-05 07:37:14 51°19.33 2°55.41 13.335862 3.858712 33.902578 3.061623
2003-05-05 07:37:18 51°19.33 2°55.43 13.270278 3.859555 33.905026 3.095332
2003-05-05 07:37:22 51°19.34 2°55.45 12.320462 3.858711 33.892413 3.19646
2003-05-05 07:37:28 51°19.35 2°55.48 12.320462 3.858711 33.892413 3.19646
2003-05-05 07:37:34 51°19.36 2°55.51 12.328792 3.860503 33.90052 3.129042
2003-05-05 07:37:38 51°19.37 2°55.53 12.410006 3.860503 33.893263 3.162751
2003-05-05 07:37:42 51°19.37 2°55.55 13.264877 3.861136 33.890748 3.19646
2003-05-05 07:37:48 51°19.38 2°55.57 13.453396 3.862295 33.892665 3.19646
2003-05-05 07:37:54 51°19.39 2°55.6 12.319013 3.862822 33.892021 3.19646
2003-05-05 07:37:58 51°19.4 2°55.62 12.319013 3.862822 33.892021 3.19646
2003-05-05 07:38:04 51°19.41 2°55.66 12.509453 3.863243 33.888897 3.263879
2003-05-05 07:38:08 51°19.42 2°55.68 12.440384 3.86377 33.883907 3.23017
2003-05-05 07:38:14 51°19.43 2°55.71 12.222681 3.863876 33.880592 3.23017
2003-05-05 07:38:18 51°19.43 2°55.73 12.930039 3.864086 33.875413 3.263879
2003-05-05 07:38:22 51°19.44 2°55.75 13.26202 3.863138 33.865418 3.331298
2003-05-05 07:38:28 51°19.45 2°55.78 13.26202 3.863138 33.865418 3.331298
2003-05-05 07:38:34 51°19.46 2°55.81 13.008059 3.86514 33.875581 3.398717
2003-05-05 07:38:38 51°19.47 2°55.83 12.715915 3.865035 33.869487 3.365007
2003-05-05 07:38:42 51°19.48 2°55.85 12.347985 3.864613 33.860306 3.432426
2003-05-05 07:38:48 51°19.49 2°55.88 13.050214 3.865456 33.863481 3.466136
2003-05-05 07:38:54 51°19.5 2°55.91 12.977131 3.865773 33.861509 3.432426
2003-05-05 07:38:58 51°19.5 2°55.93 12.977131 3.865773 33.861509 3.432426
2003-05-05 07:39:02 51°19.51 2°55.95 12.829466 3.865562 33.858005 3.466136
2003-05-05 07:39:08 51°19.52 2°55.98 12.901589 3.865562 33.85367 3.432426
2003-05-05 07:39:14 51°19.53 2°56 12.679132 3.865878 33.855312 3.466136
2003-05-05 07:39:18 51°19.54 2°56.02 12.972737 3.866194 33.854787 3.398717
2003-05-05 07:39:22 51°19.54 2°56.04 12.750833 3.868619 33.878454 3.499845
2003-05-05 07:39:28 51°19.55 2°56.08 12.750833 3.868619 33.878454 3.499845
2003-05-05 07:39:34 51°19.56 2°56.11 13.043675 3.866721 33.858487 3.365007
2003-05-05 07:39:38 51°19.56 2°56.13 12.858352 3.867037 33.860129 3.432426
2003-05-05 07:39:42 51°19.57 2°56.15 13.113419 3.866932 33.860545 3.432426
2003-05-05 07:39:48 51°19.57 2°56.18 13.11239 3.866721 33.858487 3.398717
2003-05-05 07:39:54 51°19.58 2°56.21 12.632911 3.86651 33.855706 3.398717
2003-05-05 07:39:58 51°19.58 2°56.24 12.632911 3.86651 33.855706 3.398717
2003-05-05 07:40:02 51°19.59 2°56.26 12.925598 3.86651 33.857874 3.331298
2003-05-05 07:40:08 51°19.59 2°56.29 13.329262 3.86651 33.858596 3.365007
2003-05-05 07:40:14 51°19.6 2°56.32 12.925553 3.86651 33.858596 3.331298
2003-05-05 07:40:18 51°19.6 2°56.34 13.290897 3.865562 33.852225 3.297589
2003-05-05 07:40:22 51°19.61 2°56.36 12.851525 3.866405 33.862625 3.365007
2003-05-05 07:40:28 51°19.62 2°56.4 12.851525 3.866405 33.862625 3.365007
2003-05-05 07:40:34 51°19.62 2°56.43 12.963455 3.865773 33.855728 3.365007
2003-05-05 07:40:38 51°19.63 2°56.45 12.963949 3.863559 33.836284 3.365007
2003-05-05 07:40:42 51°19.63 2°56.47 12.633813 3.865983 33.860677 3.365007
2003-05-05 07:40:48 51°19.64 2°56.5 12.821333 3.86651 33.865823 3.297589
2003-05-05 07:40:54 51°19.64 2°56.54 13.153495 3.865351 33.853056 3.365007
2003-05-05 07:40:58 51°19.65 2°56.56 13.153495 3.865351 33.853056 3.365007
2003-05-05 07:41:02 51°19.65 2°56.58 12.823355 3.865983 33.861399 3.297589
2003-05-05 07:41:08 51°19.66 2°56.61 13.008641 3.865983 33.861399 3.331298
2003-05-05 07:41:14 51°19.67 2°56.64 12.865762 3.865351 33.853056 3.297589
2003-05-05 07:41:18 51°19.67 2°56.66 12.793331 3.866194 33.860567 3.365007
2003-05-05 07:41:22 51°19.68 2°56.68 12.943453 3.86651 33.864377 3.331298
2003-05-05 07:41:28 51°19.68 2°56.71 12.943453 3.86651 33.864377 3.331298
2003-05-05 07:41:34 51°19.69 2°56.74 12.836026 3.867459 33.871471 3.297589
2003-05-05 07:41:38 51°19.7 2°56.77 13.242508 3.867248 33.866522 3.365007
2003-05-05 07:41:42 51°19.7 2°56.79 13.06208 3.867354 33.868274 3.365007
2003-05-05 07:41:48 51°19.71 2°56.82 13.395189 3.866194 33.85262 3.398717
2003-05-05 07:41:54 51°19.72 2°56.85 12.847437 3.866932 33.8591 3.365007
2003-05-05 07:41:58 51°19.72 2°56.87 12.847437 3.866932 33.8591 3.365007
2003-05-05 07:42:02 51°19.73 2°56.89 13.435053 3.867248 33.860019 3.365007
2003-05-05 07:42:08 51°19.74 2°56.92 13.072423 3.866826 33.854459 3.398717
2003-05-05 07:42:14 51°19.75 2°56.95 12.889828 3.868091 33.863916 3.398717
2003-05-05 07:42:18 51°19.75 2°56.97 12.41412 3.866405 33.843846 3.365007
2003-05-05 07:42:22 51°19.76 2°56.99 12.640121 3.865878 33.835817 3.398717
2003-05-05 07:42:28 51°19.76 2°57.03 12.640121 3.865878 33.835817 3.398717
2003-05-05 07:42:34 51°19.77 2°57.06 12.790274 3.868197 33.857722 3.432426
2003-05-05 07:42:38 51°19.77 2°57.08 13.052229 3.867459 33.846913 3.466136
2003-05-05 07:42:42 51°19.78 2°57.1 12.465147 3.868513 33.855032 3.466136
2003-05-05 07:42:48 51°19.79 2°57.13 12.6903 3.867037 33.837749 3.432426
2003-05-05 07:42:54 51°19.79 2°57.16 13.022935 3.867248 33.838362 3.533554
2003-05-05 07:42:58 51°19.8 2°57.18 13.022935 3.867248 33.838362 3.533554
2003-05-05 07:43:02 51°19.8 2°57.2 12.62214 3.866405 33.82581 3.499845
2003-05-05 07:43:08 51°19.81 2°57.23 12.440294 3.867037 33.831257 3.499845
2003-05-05 07:43:14 51°19.82 2°57.26 12.664089 3.866826 33.823434 3.533554
2003-05-05 07:43:18 51°19.82 2°57.29 12.925104 3.868091 33.833605 3.499845
2003-05-05 07:43:22 51°19.83 2°57.31 13.072468 3.866721 33.816641 3.432426
2003-05-05 07:43:28 51°19.84 2°57.34 13.072468 3.866721 33.816641 3.432426
2003-05-05 07:43:34 51°19.84 2°57.37 12.670125 3.865983 33.807286 3.499845
2003-05-05 07:43:38 51°19.85 2°57.39 13.11145 3.867037 33.81468 3.499845
2003-05-05 07:43:42 51°19.86 2°57.41 12.89113 3.866088 33.803993 3.398717
2003-05-05 07:43:48 51°19.86 2°57.44 12.964397 3.866615 33.806249 3.398717
2003-05-05 07:43:54 51°19.87 2°57.47 12.85377 3.866931 33.808611 3.365007
2003-05-05 07:43:58 51°19.87 2°57.49 12.85377 3.866931 33.808611 3.365007
2003-05-05 07:44:02 51°19.88 2°57.51 13.293976 3.867775 33.813229 3.365007
2003-05-05 07:44:08 51°19.89 2°57.54 12.889559 3.866931 33.803571 3.398717
2003-05-05 07:44:14 51°19.89 2°57.58 12.998244 3.866615 33.79977 3.365007
2003-05-05 07:44:18 51°19.9 2°57.6 12.775705 3.867142 33.803466 3.398717
2003-05-05 07:44:22 51°19.9 2°57.62 12.518031 3.866931 33.801412 3.398717
2003-05-05 07:44:28 51°19.91 2°57.65 12.518031 3.866931 33.801412 3.398717
2003-05-05 07:44:34 51°19.92 2°57.68 13.033059 3.867247 33.803773 3.365007
2003-05-05 07:44:38 51°19.92 2°57.7 13.181749 3.866826 33.801104 3.331298
2003-05-05 07:44:42 51°19.93 2°57.72 13.252421 3.86672 33.803676 3.365007
2003-05-05 07:44:48 51°19.93 2°57.75 12.777639 3.86672 33.802957 3.365007
2003-05-05 07:44:54 51°19.94 2°57.78 12.813738 3.86788 33.814256 3.331298
2003-05-05 07:44:58 51°19.95 2°57.8 12.813738 3.86788 33.814256 3.331298
2003-05-05 07:45:02 51°19.95 2°57.82 12.739406 3.86651 33.802342 3.331298
2003-05-05 07:45:08 51°19.96 2°57.85 13.254252 3.86651 33.801622 3.365007
2003-05-05 07:45:14 51°19.97 2°57.89 12.702546 3.865455 33.792069 3.331298
2003-05-05 07:45:18 51°19.97 2°57.91 12.666657 3.866826 33.803984 3.398717
2003-05-05 07:45:22 51°19.98 2°57.93 12.982421 3.866193 33.79926 3.365007
2003-05-05 07:45:28 51°19.98 2°57.96 12.982421 3.866193 33.79926 3.365007
2003-05-05 07:45:34 51°19.99 2°57.99 12.888975 3.86651 33.800182 3.365007
2003-05-05 07:45:38 51°20 2°58.01 12.743545 3.865666 33.794124 3.432426
2003-05-05 07:45:42 51°20 2°58.03 12.855657 3.865455 33.79063 3.466136
2003-05-05 07:45:48 51°20.01 2°58.06 13.004384 3.865455 33.78991 3.499845
2003-05-05 07:45:54 51°20.02 2°58.09 12.751013 3.866088 33.796793 3.567264
2003-05-05 07:45:58 51°20.02 2°58.11 12.751013 3.866088 33.796793 3.567264
2003-05-05 07:46:02 51°20.03 2°58.13 12.641653 3.865245 33.787856 3.567264
2003-05-05 07:46:08 51°20.04 2°58.16 13.085136 3.864823 33.783028 3.634683
2003-05-05 07:46:14 51°20.04 2°58.19 13.308566 3.864507 33.777789 3.735811
2003-05-05 07:46:18 51°20.05 2°58.21 13.053348 3.86419 33.773989 3.80323
2003-05-05 07:46:22 51°20.05 2°58.23 12.982197 3.863769 33.767005 3.80323
2003-05-05 07:46:28 51°20.06 2°58.27 12.982197 3.863769 33.767005 3.80323
2003-05-05 07:46:34 51°20.07 2°58.3 12.983676 3.86398 33.769058 3.836939
2003-05-05 07:46:38 51°20.07 2°58.32 12.654449 3.865772 33.781481 3.938067
2003-05-05 07:46:44 51°20.08 2°58.35 12.914918 3.862925 33.754478 3.904358
2003-05-05 07:46:48 51°20.08 2°58.37 12.915143 3.864085 33.763615 4.005486
2003-05-05 07:46:54 51°20.09 2°58.4 12.954486 3.863663 33.756634 4.005486
2003-05-05 07:46:58 51°20.1 2°58.42 12.954486 3.863663 33.756634 4.005486
2003-05-05 07:47:02 51°20.1 2°58.44 13.360072 3.863452 33.753863 4.039195
2003-05-05 07:47:08 51°20.11 2°58.47 12.77566 3.864401 33.761665 3.971777
2003-05-05 07:47:14 51°20.12 2°58.5 12.779258 3.864717 33.76187 4.005486
2003-05-05 07:47:18 51°20.12 2°58.52 13.149292 3.864401 33.757354 4.072905
2003-05-05 07:47:22 51°20.13 2°58.54 12.819895 3.864612 33.75797 4.140324
2003-05-05 07:47:28 51°20.13 2°58.57 12.819895 3.864612 33.75797 4.140324
2003-05-05 07:47:34 51°20.14 2°58.6 13.04251 3.865455 33.761871 4.174033
2003-05-05 07:47:38 51°20.15 2°58.62 13.337289 3.863874 33.747195 4.140324
2003-05-05 07:47:42 51°20.15 2°58.64 12.678952 3.863241 33.738884 4.275161
2003-05-05 07:47:48 51°20.16 2°58.67 13.743184 3.86419 33.742377 4.275161
2003-05-05 07:47:54 51°20.17 2°58.7 12.867603 3.863241 33.731708 4.275161
2003-05-05 07:47:58 51°20.17 2°58.72 12.867603 3.863241 33.731708 4.275161
2003-05-05 07:48:02 51°20.18 2°58.74 12.79441 3.862398 33.724218 4.34258
2003-05-05 07:48:08 51°20.18 2°58.77 12.723296 3.862925 33.726478 4.409999
2003-05-05 07:48:14 51°20.19 2°58.8 13.164181 3.863452 33.729455 4.376289
2003-05-05 07:48:18 51°20.2 2°58.82 12.909084 3.86303 33.724635 4.443708
2003-05-05 07:48:22 51°20.2 2°58.84 12.946772 3.86282 33.721149 4.477418
2003-05-05 07:48:28 51°20.21 2°58.87 12.946772 3.86282 33.721149 4.477418
2003-05-05 07:48:34 51°20.22 2°58.9 12.839306 3.86282 33.718998 4.544836
2003-05-05 07:48:38 51°20.22 2°58.92 12.951212 3.86303 33.720332 4.578546
2003-05-05 07:48:42 51°20.23 2°58.94 12.842271 3.863768 33.726795 4.578546
2003-05-05 07:48:48 51°20.24 2°58.98 13.064588 3.864084 33.724852 4.578546
2003-05-05 07:48:54 51°20.24 2°59.01 13.250948 3.863557 33.719008 4.578546
2003-05-05 07:48:58 51°20.25 2°59.03 13.250948 3.863557 33.719008 4.578546
2003-05-05 07:49:02 51°20.25 2°59.05 13.107736 3.863557 33.717574 4.578546
2003-05-05 07:49:08 51°20.26 2°59.08 13.403075 3.863136 33.71204 4.578546
2003-05-05 07:49:14 51°20.27 2°59.11 13.223348 3.862081 33.698921 4.612255
2003-05-05 07:49:18 51°20.27 2°59.13 13.265859 3.864084 33.717684 4.679674
2003-05-05 07:49:22 51°20.28 2°59.15 12.976817 3.862398 33.707728 4.679674
2003-05-05 07:49:28 51°20.29 2°59.18 12.976817 3.862398 33.707728 4.679674
2003-05-05 07:49:34 51°20.29 2°59.21 13.058409 3.863557 33.708976 4.713383
2003-05-05 07:49:38 51°20.3 2°59.23 12.844607 3.863346 33.704777 4.713383
2003-05-05 07:49:42 51°20.3 2°59.25 12.849818 3.86419 33.710112 4.747093
2003-05-05 07:49:48 51°20.31 2°59.28 13.147727 3.863452 33.700789 4.814512
2003-05-05 07:49:54 51°20.32 2°59.31 12.750518 3.862714 33.68932 4.848221
2003-05-05 07:49:58 51°20.32 2°59.33 12.750518 3.862714 33.68932 4.848221
2003-05-05 07:50:02 51°20.33 2°59.35 13.129882 3.864716 33.703064 4.848221
2003-05-05 07:50:08 51°20.34 2°59.38 13.143792 3.863346 33.685451 4.88193
2003-05-05 07:50:14 51°20.35 2°59.41 13.089164 3.86303 33.676657 4.88193
2003-05-05 07:50:18 51°20.35 2°59.43 12.848021 3.864189 33.682203 4.983059
2003-05-05 07:50:22 51°20.36 2°59.45 13.15667 3.861448 33.650577 5.050477
2003-05-05 07:50:28 51°20.36 2°59.48 13.15667 3.861448 33.650577 5.050477
2003-05-05 07:50:34 51°20.37 2°59.51 13.174463 3.861554 33.645174 5.084187
2003-05-05 07:50:38 51°20.37 2°59.53 13.224197 3.860394 33.626779 5.151606
2003-05-05 07:50:42 51°20.38 2°59.55 13.496339 3.860183 33.61261 5.252734
2003-05-05 07:50:48 51°20.38 2°59.58 13.508393 3.860183 33.599074 5.353862
2003-05-05 07:50:54 51°20.39 2°59.61 13.879073 3.861764 33.600171 5.421281
2003-05-05 07:50:58 51°20.4 2°59.63 13.879073 3.861764 33.600171 5.421281
2003-05-05 07:51:02 51°20.4 2°59.65 13.271528 3.86208 33.590429 5.4887
2003-05-05 07:51:08 51°20.41 2°59.68 13.716274 3.861131 33.566307 5.522409
2003-05-05 07:51:14 51°20.42 2°59.71 13.065439 3.860815 33.552591 5.623537
2003-05-05 07:51:18 51°20.42 2°59.73 13.436211 3.861342 33.542794 5.623537
2003-05-05 07:51:24 51°20.43 2°59.76 13.116551 3.860498 33.523287 5.657247
2003-05-05 07:51:28 51°20.43 2°59.78 13.116551 3.860498 33.523287 5.657247
2003-05-05 07:51:34 51°20.44 2°59.81 13.703547 3.861025 33.517053 5.657247
2003-05-05 07:51:38 51°20.45 2°59.83 13.202351 3.860392 33.503147 5.657247
2003-05-05 07:51:42 51°20.45 2°59.85 13.139588 3.860498 33.496383 5.724665
2003-05-05 07:51:48 51°20.46 2°59.88 12.891714 3.861025 33.495821 5.724665
2003-05-05 07:51:54 51°20.46 2°59.91 12.864235 3.860708 33.4864 5.724665
2003-05-05 07:51:58 51°20.47 2°59.93 12.864235 3.860708 33.4864 5.724665
2003-05-05 07:52:02 51°20.47 2°59.95 13.055185 3.860076 33.47322 5.724665
2003-05-05 07:52:08 51°20.48 2°59.98 13.389887 3.860603 33.47125 5.758375
2003-05-05 07:52:14 51°20.49 3°0.01 12.995555 3.861024 33.468969 5.724665
2003-05-05 07:52:18 51°20.49 3°0.03 13.074975 3.860181 33.452354 5.792084
2003-05-05 07:52:22 51°20.5 3°0.05 13.705632 3.857967 33.422518 5.792084
2003-05-05 07:52:28 51°20.51 3°0.08 13.705632 3.857967 33.422518 5.792084
2003-05-05 07:52:34 51°20.51 3°0.11 13.526805 3.860286 33.437154 5.758375
2003-05-05 07:52:38 51°20.52 3°0.13 13.313517 3.859548 33.423691 5.758375
2003-05-05 07:52:42 51°20.52 3°0.15 13.464078 3.857967 33.403505 5.825794
2003-05-05 07:52:48 51°20.53 3°0.18 13.434073 3.860286 33.417434 5.825794
2003-05-05 07:52:54 51°20.54 3°0.21 13.077079 3.858705 33.395849 5.825794
2003-05-05 07:52:58 51°20.54 3°0.23 13.077079 3.858705 33.395849 5.825794
2003-05-05 07:53:02 51°20.55 3°0.25 13.489265 3.85881 33.391944 5.926922
2003-05-05 07:53:08 51°20.56 3°0.28 13.355436 3.859126 33.388667 5.960631
2003-05-05 07:53:14 51°20.56 3°0.31 13.292414 3.858599 33.380072 6.02805
2003-05-05 07:53:18 51°20.57 3°0.33 13.555391 3.858704 33.374766 6.061759
2003-05-05 07:53:22 51°20.57 3°0.35 13.454731 3.85765 33.357587 6.061759
2003-05-05 07:53:28 51°20.58 3°0.38 13.454731 3.85765 33.357587 6.061759
2003-05-05 07:53:34 51°20.59 3°0.41 13.604354 3.858282 33.356664 6.264016
2003-05-05 07:53:38 51°20.59 3°0.43 13.169367 3.85765 33.34496 6.297725
2003-05-05 07:53:42 51°20.6 3°0.45 13.206283 3.854487 33.303996 6.264016
2003-05-05 07:53:48 51°20.61 3°0.49 13.607995 3.856701 33.318307 6.365144
2003-05-05 07:53:54 51°20.61 3°0.52 13.462743 3.856068 33.301721 6.331435
2003-05-05 07:53:58 51°20.62 3°0.54 13.462743 3.856068 33.301721 6.331435
2003-05-05 07:54:02 51°20.62 3°0.56 13.756036 3.856806 33.303225 6.365144
2003-05-05 07:54:08 51°20.63 3°0.58 13.868323 3.856279 33.292559 6.331435
2003-05-05 07:54:14 51°20.64 3°0.61 13.36239 3.855857 33.285008 6.365144
2003-05-05 07:54:18 51°20.65 3°0.63 13.511685 3.856068 33.285638 6.398853
2003-05-05 07:54:22 51°20.65 3°0.65 13.663044 3.856279 33.284172 6.398853
2003-05-05 07:54:28 51°20.66 3°0.68 13.663044 3.856279 33.284172 6.398853
2003-05-05 07:54:34 51°20.67 3°0.71 13.271216 3.856384 33.283788 6.466272
2003-05-05 07:54:38 51°20.67 3°0.73 13.461853 3.855541 33.27498 6.398853
2003-05-05 07:54:42 51°20.67 3°0.75 13.979363 3.855014 33.267816 6.499982
2003-05-05 07:54:48 51°20.68 3°0.79 13.731614 3.85396 33.254189 6.432563
2003-05-05 07:54:54 51°20.69 3°0.82 13.370012 3.854803 33.259505 6.499982
2003-05-05 07:54:58 51°20.69 3°0.84 13.370012 3.854803 33.259505 6.499982
2003-05-05 07:55:02 51°20.69 3°0.86 13.262913 3.853116 33.235619 6.634819
2003-05-05 07:55:08 51°20.7 3°0.89 13.187694 3.853854 33.239224 6.533691
2003-05-05 07:55:14 51°20.71 3°0.92 13.586141 3.851535 33.209275 6.60111
2003-05-05 07:55:18 51°20.71 3°0.94 13.5417 3.849321 33.181746 6.634819
2003-05-05 07:55:24 51°20.72 3°0.97 13.350933 3.849216 33.175169 6.803366
2003-05-05 07:55:28 51°20.72 3°0.99 13.350933 3.849216 33.175169 6.803366
2003-05-05 07:55:34 51°20.73 3°1.02 13.524893 3.847845 33.157839 6.870785
2003-05-05 07:55:38 51°20.73 3°1.04 13.160202 3.844999 33.129126 6.971913
2003-05-05 07:55:42 51°20.74 3°1.06 13.458337 3.842364 33.102443 7.376426
2003-05-05 07:55:48 51°20.74 3°1.09 13.572901 3.837832 33.059635 7.612392
2003-05-05 07:55:54 51°20.75 3°1.12 13.58272 3.833721 33.027802 7.949486
2003-05-05 07:55:58 51°20.75 3°1.14 13.58272 3.833721 33.027802 7.949486
2003-05-05 07:56:02 51°20.76 3°1.16 13.156849 3.826659 32.965563 8.252871
2003-05-05 07:56:08 51°20.76 3°1.19 13.497184 3.822021 32.923824 8.28658
2003-05-05 07:56:14 51°20.77 3°1.22 13.472312 3.817172 32.879375 8.387708
2003-05-05 07:56:18 51°20.77 3°1.24 13.375405 3.814221 32.848997 8.421418
2003-05-05 07:56:22 51°20.78 3°1.26 13.421827 3.813167 32.834068 8.28658
2003-05-05 07:56:28 51°20.79 3°1.29 13.421827 3.813167 32.834068 8.28658
2003-05-05 07:56:34 51°20.79 3°1.32 14.012922 3.813694 32.833616 8.185452
2003-05-05 07:56:38 51°20.8 3°1.34 13.289648 3.811902 32.808871 8.219161
2003-05-05 07:56:42 51°20.8 3°1.36 13.410291 3.814326 32.82317 8.084324
2003-05-05 07:56:48 51°20.81 3°1.39 13.273269 3.816329 32.833423 8.016905
2003-05-05 07:56:54 51°20.82 3°1.42 13.432559 3.817066 32.828807 7.915777
2003-05-05 07:56:58 51°20.82 3°1.44 13.432559 3.817066 32.828807 7.915777
2003-05-05 07:57:02 51°20.83 3°1.46 13.257734 3.815907 32.817701 7.848358
2003-05-05 07:57:08 51°20.83 3°1.49 13.44792 3.818542 32.827825 7.780939
2003-05-05 07:57:14 51°20.84 3°1.53 13.525782 3.821177 32.843438 7.578683
2003-05-05 07:57:18 51°20.84 3°1.55 13.708514 3.82339 32.859131 7.646101
2003-05-05 07:57:22 51°20.85 3°1.57 13.601822 3.823285 32.849193 7.511264
2003-05-05 07:57:28 51°20.86 3°1.6 13.601822 3.823285 32.849193 7.511264
2003-05-05 07:57:34 51°20.86 3°1.63 13.821899 3.82223 32.828127 7.612392
2003-05-05 07:57:38 51°20.87 3°1.65 13.532007 3.821387 32.813204 7.578683
2003-05-05 07:57:42 51°20.87 3°1.67 13.494737 3.821071 32.804012 7.679811
2003-05-05 07:57:48 51°20.88 3°1.7 14.03658 3.820122 32.790148 7.882067
2003-05-05 07:57:54 51°20.89 3°1.73 13.960943 3.819489 32.780679 7.949486
2003-05-05 07:57:58 51°20.89 3°1.75 13.960943 3.819489 32.780679 7.949486
2003-05-05 07:58:02 51°20.89 3°1.77 13.486863 3.817908 32.762147 8.050614
2003-05-05 07:58:08 51°20.9 3°1.8 13.413008 3.815484 32.736928 8.185452
2003-05-05 07:58:14 51°20.91 3°1.83 13.66655 3.812533 32.708047 8.252871
2003-05-05 07:58:18 51°20.91 3°1.85 13.702483 3.810741 32.688881 8.455127
2003-05-05 07:58:22 51°20.92 3°1.87 13.117803 3.80916 32.675142 8.522546
2003-05-05 07:58:28 51°20.92 3°1.9 13.117803 3.80916 32.675142 8.522546
2003-05-05 07:58:34 51°20.93 3°1.93 13.372329 3.808527 32.669101 8.724802
2003-05-05 07:58:38 51°20.93 3°1.95 13.518934 3.806314 32.650003 8.792221
2003-05-05 07:58:42 51°20.94 3°1.97 13.736535 3.804522 32.634932 8.960768
2003-05-05 07:58:48 51°20.94 3°2 13.33555 3.803047 32.6222 8.960768
2003-05-05 07:58:54 51°20.95 3°2.03 13.44565 3.800939 32.602065 8.994477
2003-05-05 07:58:58 51°20.95 3°2.05 13.44565 3.800939 32.602065 8.994477
2003-05-05 07:59:02 51°20.96 3°2.07 13.010165 3.800095 32.596054 9.230443
2003-05-05 07:59:08 51°20.97 3°2.1 13.560457 3.798514 32.580954 9.331571
2003-05-05 07:59:14 51°20.97 3°2.13 13.637612 3.796828 32.566208 9.297862
2003-05-05 07:59:18 51°20.98 3°2.15 13.202708 3.795458 32.553123 9.533828
2003-05-05 07:59:22 51°20.98 3°2.17 13.16901 3.795247 32.550431 9.601247
2003-05-05 07:59:28 51°20.99 3°2.2 13.16901 3.795247 32.550431 9.601247
2003-05-05 07:59:34 51°21 3°2.23 13.281213 3.793244 32.532666 9.702375
2003-05-05 07:59:38 51°21 3°2.25 13.095744 3.791136 32.510502 9.904631
2003-05-05 07:59:42 51°21 3°2.27 13.129837 3.78945 32.493045 10.073178
2003-05-05 07:59:48 51°21.01 3°2.3 13.635703 3.78692 32.464832 10.342853
2003-05-05 07:59:54 51°21.02 3°2.33 13.152378 3.783547 32.429259 10.376563
2003-05-05 07:59:58 51°21.02 3°2.35 13.152378 3.783547 32.429259 10.376563
2003-05-05 08:00:04 51°21.03 3°2.38 13.095565 3.782599 32.418179 10.443982
2003-05-05 08:00:08 51°21.03 3°2.4 13.288889 3.780069 32.39337 10.342853
2003-05-05 08:00:14 51°21.04 3°2.43 13.358868 3.774905 32.343434 10.477691
2003-05-05 08:00:18 51°21.04 3°2.45 13.722038 3.769846 32.297212 10.443982
2003-05-05 08:00:22 51°21.05 3°2.47 13.698003 3.76563 32.26038 10.443982
2003-05-05 08:00:28 51°21.06 3°2.5 13.698003 3.76563 32.26038 10.443982
2003-05-05 08:00:34 51°21.06 3°2.53 13.646934 3.761309 32.223215 10.578819
2003-05-05 08:00:38 51°21.07 3°2.55 13.718402 3.757093 32.18907 10.477691
2003-05-05 08:00:42 51°21.07 3°2.57 14.04545 3.754985 32.171659 10.410272
2003-05-05 08:00:48 51°21.08 3°2.6 13.538499 3.752772 32.153243 10.477691
2003-05-05 08:00:54 51°21.08 3°2.63 13.898179 3.751929 32.147218 10.5114
2003-05-05 08:00:58 51°21.09 3°2.65 13.898179 3.751929 32.147218 10.5114
2003-05-05 08:01:02 51°21.09 3°2.67 13.820837 3.75098 32.139516 10.342853
2003-05-05 08:01:08 51°21.1 3°2.7 13.525693 3.751191 32.142868 10.241725
2003-05-05 08:01:14 51°21.11 3°2.73 13.518356 3.752245 32.154933 10.241725
2003-05-05 08:01:18 51°21.11 3°2.75 13.72124 3.754037 32.171348 10.309144
2003-05-05 08:01:22 51°21.12 3°2.77 13.517111 3.756039 32.191118 10.814785
2003-05-05 08:01:28 51°21.12 3°2.8 13.517111 3.756039 32.191118 10.814785
2003-05-05 08:01:34 51°21.13 3°2.83 13.81849 3.757936 32.210559 11.65752
2003-05-05 08:01:38 51°21.13 3°2.85 13.537921 3.75878 32.221967 12.567674
2003-05-05 08:01:42 51°21.14 3°2.87 13.551835 3.759096 32.23037 13.747503
2003-05-05 08:01:48 51°21.14 3°2.9 13.13847 3.757831 32.222341 14.758785
2003-05-05 08:01:54 51°21.15 3°2.93 13.155999 3.755618 32.211318 15.567811
2003-05-05 08:01:58 51°21.16 3°2.95 13.155999 3.755618 32.211318 15.567811
2003-05-05 08:02:02 51°21.16 3°2.97 13.665973 3.751719 32.190249 16.511674
2003-05-05 08:02:08 51°21.17 3°3 13.340232 3.747609 32.167826 17.421828
2003-05-05 08:02:14 51°21.18 3°3.03 13.529517 3.744131 32.15345 18.163435
2003-05-05 08:02:18 51°21.18 3°3.05 13.895614 3.740548 32.136708 19.073589
2003-05-05 08:02:22 51°21.18 3°3.07 13.24617 3.737386 32.121293 20.017452
2003-05-05 08:02:28 51°21.19 3°3.1 13.24617 3.737386 32.121293 20.017452
2003-05-05 08:02:34 51°21.2 3°3.13 13.831948 3.733803 32.097795 20.219708
2003-05-05 08:02:38 51°21.2 3°3.15 13.58543 3.729271 32.06185 19.815195
2003-05-05 08:02:42 51°21.2 3°3.17 13.948969 3.72474 32.021866 19.275845
2003-05-05 08:02:48 51°21.21 3°3.2 13.442845 3.719997 31.97517 18.3994
2003-05-05 08:02:54 51°21.22 3°3.23 13.181436 3.714939 31.924795 17.556665
2003-05-05 08:02:58 51°21.22 3°3.25 13.181436 3.714939 31.924795 17.556665
2003-05-05 08:03:02 51°21.23 3°3.26 13.398308 3.709248 31.86639 16.882477
2003-05-05 08:03:08 51°21.23 3°3.29 13.468262 3.704611 31.820749 16.343127
2003-05-05 08:03:14 51°21.24 3°3.32 13.61146 3.701133 31.782861 15.736358
2003-05-05 08:03:18 51°21.24 3°3.34 13.611682 3.697971 31.750671 15.432973
2003-05-05 08:03:22 51°21.25 3°3.36 13.35343 3.693967 31.71177 14.927332
2003-05-05 08:03:28 51°21.25 3°3.39 13.35343 3.693967 31.71177 14.927332
2003-05-05 08:03:34 51°21.26 3°3.42 13.243759 3.691648 31.690302 14.961042
2003-05-05 08:03:38 51°21.26 3°3.44 13.351423 3.688487 31.662778 15.06217
2003-05-05 08:03:42 51°21.27 3°3.46 13.13516 3.684166 31.623527 15.399264
2003-05-05 08:03:48 51°21.27 3°3.49 13.358155 3.680794 31.591343 15.702648
2003-05-05 08:03:54 51°21.28 3°3.52 13.323955 3.673839 31.525639 16.073452
2003-05-05 08:03:58 51°21.29 3°3.54 13.323955 3.673839 31.525639 16.073452
2003-05-05 08:04:02 51°21.29 3°3.56 13.87257 3.669413 31.485397 16.410546
2003-05-05 08:04:08 51°21.3 3°3.58 13.257109 3.664038 31.43743 16.74764
2003-05-05 08:04:14 51°21.3 3°3.61 13.62336 3.659718 31.395565 17.3207
2003-05-05 08:04:18 51°21.31 3°3.63 14.023914 3.655186 31.351043 17.421828
2003-05-05 08:04:22 51°21.31 3°3.65 13.588051 3.651498 31.315226 17.624084
2003-05-05 08:04:28 51°21.32 3°3.68 13.588051 3.651498 31.315226 17.624084
2003-05-05 08:04:34 51°21.32 3°3.7 13.661802 3.648653 31.285483 17.725212
2003-05-05 08:04:38 51°21.33 3°3.72 13.297635 3.644965 31.250336 17.961178
2003-05-05 08:04:44 51°21.33 3°3.75 13.441287 3.641698 31.216593 18.096016
2003-05-05 08:04:48 51°21.34 3°3.77 13.331804 3.637588 31.176139 18.264563
2003-05-05 08:04:54 51°21.34 3°3.79 13.805074 3.634322 31.143069 18.197144
2003-05-05 08:04:58 51°21.35 3°3.81 13.805074 3.634322 31.143069 18.197144
2003-05-05 08:05:02 51°21.35 3°3.82 13.660515 3.62958 31.096616 18.230853
2003-05-05 08:05:08 51°21.35 3°3.85 13.442934 3.626524 31.067525 18.298272
2003-05-05 08:05:14 51°21.36 3°3.87 13.660914 3.624838 31.050175 18.43311
2003-05-05 08:05:18 51°21.36 3°3.88 13.333008 3.623468 31.038438 18.331982
2003-05-05 08:05:22 51°21.37 3°3.9 13.51929 3.622415 31.027759 18.3994
2003-05-05 08:05:28 51°21.37 3°3.92 13.51929 3.622415 31.027759 18.3994
2003-05-05 08:05:34 51°21.38 3°3.94 13.156804 3.620939 31.01307 18.331982
2003-05-05 08:05:38 51°21.38 3°3.96 13.343933 3.618305 30.988652 18.365691
2003-05-05 08:05:42 51°21.38 3°3.97 13.493447 3.615249 30.958928 18.298272
2003-05-05 08:05:48 51°21.39 3°3.99 13.424321 3.612931 30.937522 18.3994
2003-05-05 08:05:54 51°21.39 3°4.01 13.353162 3.610192 30.909517 18.331982
2003-05-05 08:05:58 51°21.39 3°4.02 13.353162 3.610192 30.909517 18.331982
2003-05-05 08:06:02 51°21.4 3°4.04 13.539343 3.606398 30.872793 18.096016
2003-05-05 08:06:08 51°21.4 3°4.06 13.578721 3.603026 30.840083 18.129725
2003-05-05 08:06:14 51°21.41 3°4.08 13.214146 3.599444 30.80086 17.826341
2003-05-05 08:06:18 51°21.41 3°4.09 13.471511 3.595967 30.766522 17.792631
2003-05-05 08:06:22 51°21.41 3°4.11 12.921829 3.592384 30.731192 17.691503
2003-05-05 08:06:28 51°21.42 3°4.13 12.921829 3.592384 30.731192 17.691503
2003-05-05 08:06:34 51°21.42 3°4.15 13.214816 3.58838 30.689938 17.725212
2003-05-05 08:06:38 51°21.42 3°4.16 13.215978 3.584481 30.649058 17.758922
2003-05-05 08:06:42 51°21.43 3°4.17 13.581121 3.582374 30.628406 17.792631
2003-05-05 08:06:48 51°21.43 3°4.19 13.508171 3.58132 30.615838 18.197144
2003-05-05 08:06:54 51°21.44 3°4.21 13.508127 3.580478 30.607195 18.230853
2003-05-05 08:06:58 51°21.44 3°4.22 13.508127 3.580478 30.607195 18.230853
2003-05-05 08:07:02 51°21.44 3°4.24 13.725984 3.580161 30.604194 18.43311
2003-05-05 08:07:08 51°21.45 3°4.25 13.690552 3.581426 30.616838 18.3994
2003-05-05 08:07:14 51°21.45 3°4.27 13.765253 3.582901 30.628919 18.837623
2003-05-05 08:07:18 51°21.45 3°4.29 13.91896 3.583533 30.63428 19.309554
2003-05-05 08:07:22 51°21.46 3°4.3 13.47912 3.583955 30.638282 19.410683
2003-05-05 08:07:28 51°21.46 3°4.32 13.47912 3.583955 30.638282 19.410683
2003-05-05 08:07:34 51°21.46 3°4.34 13.625048 3.583955 30.63764 19.680358
2003-05-05 08:07:38 51°21.47 3°4.35 13.039375 3.58406 30.639923 19.714067
2003-05-05 08:07:42 51°21.47 3°4.36 13.2204 3.583955 30.636999 19.916324
2003-05-05 08:07:48 51°21.47 3°4.38 13.549168 3.583322 30.631638 20.320836
2003-05-05 08:07:54 51°21.48 3°4.4 13.18309 3.583533 30.632356 20.455674
2003-05-05 08:07:58 51°21.48 3°4.41 13.18309 3.583533 30.632356 20.455674
2003-05-05 08:08:02 51°21.48 3°4.42 13.657541 3.583006 30.626714 20.624221
2003-05-05 08:08:08 51°21.49 3°4.44 12.961034 3.582058 30.615149 20.523093
2003-05-05 08:08:14 51°21.49 3°4.46 13.069826 3.581847 30.615071 20.792768
2003-05-05 08:08:18 51°21.49 3°4.47 13.325114 3.581531 30.610789 20.860187
2003-05-05 08:08:22 51°21.5 3°4.48 13.07099 3.581847 30.615712 21.028734
2003-05-05 08:08:28 51°21.5 3°4.5 13.07099 3.581847 30.615712 21.028734
2003-05-05 08:08:34 51°21.5 3°4.52 13.400224 3.581531 30.612711 21.23099
2003-05-05 08:08:38 51°21.51 3°4.53 13.218211 3.581636 30.613071 21.568084
2003-05-05 08:08:44 51°21.51 3°4.54 13.437235 3.582163 30.619994 21.938888
2003-05-05 08:08:48 51°21.51 3°4.55 13.437992 3.582796 30.626637 22.040016
2003-05-05 08:08:54 51°21.52 3°4.57 13.401694 3.583428 30.632639 22.478238
2003-05-05 08:08:58 51°21.52 3°4.58 13.401694 3.583428 30.632639 22.478238
2003-05-05 08:09:02 51°21.52 3°4.59 13.075154 3.58406 30.63864 22.95017
2003-05-05 08:09:08 51°21.53 3°4.61 13.804986 3.585008 30.647644 23.422101
2003-05-05 08:09:14 51°21.53 3°4.62 13.370903 3.585114 30.648002 24.028871
2003-05-05 08:09:18 51°21.53 3°4.63 13.697294 3.585956 30.656005 24.939024
2003-05-05 08:09:22 51°21.53 3°4.65 13.407975 3.585851 30.654363 25.849178
2003-05-05 08:09:28 51°21.54 3°4.66 13.407975 3.585851 30.654363 25.849178
2003-05-05 08:09:34 51°21.54 3°4.68 12.527646 3.58564 30.651079 26.051435
2003-05-05 08:09:38 51°21.55 3°4.69 12.454981 3.585956 30.653439 26.759332
2003-05-05 08:09:42 51°21.55 3°4.7 12.455343 3.58543 30.647796 27.332392
2003-05-05 08:09:48 51°21.55 3°4.71 12.456337 3.584376 30.636511 28.242546
2003-05-05 08:09:54 51°21.56 3°4.73 12.270321 3.583744 30.631151 28.680768
2003-05-05 08:09:58 51°21.56 3°4.74 12.270321 3.583744 30.631151 28.680768
2003-05-05 08:10:02 51°21.56 3°4.75 12.716005 3.583006 30.623509 29.354956
2003-05-05 08:10:08 51°21.57 3°4.77 12.419862 3.58269 30.617945 30.062853
2003-05-05 08:10:14 51°21.57 3°4.79 12.382237 3.582795 30.619586 30.568494
2003-05-05 08:10:18 51°21.57 3°4.8 12.419862 3.582374 30.613023 31.175264
2003-05-05 08:10:22 51°21.58 3°4.82 12.420043 3.582585 30.614383 32.017999
2003-05-05 08:10:28 51°21.58 3°4.83 12.420043 3.582585 30.614383 32.017999
2003-05-05 08:10:34 51°21.59 3°4.85 12.38287 3.582058 30.610024 32.995571
2003-05-05 08:10:38 51°21.59 3°4.87 12.418596 3.583006 30.619023 33.770888
2003-05-05 08:10:42 51°21.59 3°4.88 12.418687 3.582374 30.613023 34.310238
2003-05-05 08:10:48 51°21.6 3°4.9 12.418958 3.583111 30.618742 34.74846
2003-05-05 08:10:54 51°21.6 3°4.92 12.493288 3.584165 30.630023 35.591195
2003-05-05 08:10:58 51°21.6 3°4.94 12.493288 3.584165 30.630023 35.591195
2003-05-05 08:11:02 51°21.61 3°4.95 12.604199 3.583849 30.627023 36.43393
2003-05-05 08:11:08 51°21.61 3°4.98 12.566723 3.584165 30.629382 37.276665
2003-05-05 08:11:14 51°21.62 3°5 12.603838 3.585008 30.638023 38.220529
2003-05-05 08:11:18 51°21.62 3°5.01 12.307964 3.58543 30.641382 38.827298
2003-05-05 08:11:22 51°21.63 3°5.03 12.641699 3.585324 30.639741 39.872289
2003-05-05 08:11:28 51°21.63 3°5.05 12.641699 3.585324 30.639741 39.872289
2003-05-05 08:11:34 51°21.64 3°5.07 12.528503 3.586272 30.648742 41.186956
2003-05-05 08:11:38 51°21.64 3°5.09 12.454303 3.586378 30.649742 41.658888
2003-05-05 08:11:42 51°21.65 3°5.1 12.345948 3.586378 30.650383 42.973554
2003-05-05 08:11:48 51°21.66 3°5.12 12.564016 3.586694 30.652742 44.119674
2003-05-05 08:11:54 51°21.66 3°5.14 12.453083 3.587221 30.659667 44.524187
2003-05-05 08:11:58 51°21.67 3°5.16 12.453083 3.587221 30.659667 44.524187
2003-05-05 08:12:02 51°21.68 3°5.17 12.414708 3.587537 30.661384 45.198375
2003-05-05 08:12:08 51°21.68 3°5.2 12.303662 3.587958 30.666027 44.726443
2003-05-05 08:12:14 51°21.69 3°5.22 12.264294 3.587958 30.665385 43.580324
2003-05-05 08:12:18 51°21.69 3°5.23 12.484707 3.587432 30.661667 42.434204
2003-05-05 08:12:22 51°21.7 3°5.25 12.260487 3.587115 30.658667 40.243093
2003-05-05 08:12:28 51°21.71 3°5.27 12.260487 3.587115 30.658667 40.243093
2003-05-05 08:12:34 51°21.72 3°5.29 12.630162 3.58543 30.644589 38.625042
2003-05-05 08:12:38 51°21.72 3°5.31 12.443955 3.584271 30.633587 37.00699
2003-05-05 08:12:44 51°21.73 3°5.33 12.51451 3.583322 30.622664 35.456358
2003-05-05 08:12:48 51°21.73 3°5.34 12.440791 3.581742 30.610867 34.242819
2003-05-05 08:12:54 51°21.74 3°5.37 12.477119 3.580161 30.597148 33.63605
2003-05-05 08:12:58 51°21.74 3°5.38 12.477119 3.580161 30.597148 33.63605
2003-05-05 08:13:02 51°21.75 3°5.4 12.477886 3.57974 30.593148 32.725896
2003-05-05 08:13:08 51°21.76 3°5.42 12.588507 3.579213 30.590069 32.355093
2003-05-05 08:13:14 51°21.76 3°5.44 12.398972 3.57837 30.582069 31.242683
2003-05-05 08:13:18 51°21.77 3°5.46 12.21479 3.577843 30.578349 30.635913
2003-05-05 08:13:24 51°21.78 3°5.48 12.398882 3.577633 30.578909 30.332529
2003-05-05 08:13:28 51°21.78 3°5.49 12.398882 3.577633 30.578909 30.332529
2003-05-05 08:13:34 51°21.79 3°5.52 12.286993 3.577 30.572269 29.590922
2003-05-05 08:13:38 51°21.79 3°5.53 12.396711 3.576684 30.569909 28.512221
2003-05-05 08:13:42 51°21.8 3°5.55 12.544254 3.575631 30.560548 27.804324
2003-05-05 08:13:48 51°21.8 3°5.57 12.433831 3.575315 30.558188 26.995298
2003-05-05 08:13:54 51°21.81 3°5.59 12.360158 3.574788 30.554467 26.995298
2003-05-05 08:13:58 51°21.82 3°5.61 12.360158 3.574788 30.554467 26.995298
2003-05-05 08:14:02 51°21.82 3°5.62 12.28423 3.57405 30.548107 26.2874
2003-05-05 08:14:08 51°21.83 3°5.65 12.210618 3.574577 30.553107 26.2874
2003-05-05 08:14:14 51°21.84 3°5.67 12.24612 3.574366 30.552386 26.489657
2003-05-05 08:14:18 51°21.84 3°5.68 12.319375 3.574999 30.559027 26.455947
2003-05-05 08:14:22 51°21.85 3°5.7 12.3569 3.575736 30.566028 26.253691
2003-05-05 08:14:28 51°21.85 3°5.72 12.3569 3.575736 30.566028 26.253691
2003-05-05 08:14:34 51°21.86 3°5.75 12.614477 3.575104 30.558747 25.646922
2003-05-05 08:14:38 51°21.86 3°5.76 12.318651 3.574999 30.559666 25.2087
2003-05-05 08:14:42 51°21.87 3°5.78 12.614116 3.575842 30.568308 25.006443
2003-05-05 08:14:48 51°21.88 3°5.8 12.357036 3.574893 30.559946 24.63564
2003-05-05 08:14:54 51°21.88 3°5.83 12.318107 3.574472 30.557225 24.669349
2003-05-05 08:14:58 51°21.89 3°5.85 12.318107 3.574472 30.557225 24.669349
2003-05-05 08:15:02 51°21.89 3°5.87 12.281059 3.574683 30.558586 24.197418
2003-05-05 08:15:08 51°21.9 3°5.89 12.503132 3.574472 30.558505 24.06258
2003-05-05 08:15:14 51°21.9 3°5.92 12.46718 3.57542 30.566227 24.231127
2003-05-05 08:15:18 51°21.91 3°5.94 12.431209 3.575947 30.571869 24.129999
2003-05-05 08:15:22 51°21.91 3°5.96 12.282418 3.576895 30.579591 23.792905
2003-05-05 08:15:28 51°21.92 3°5.99 12.282418 3.576895 30.579591 23.792905
2003-05-05 08:15:34 51°21.92 3°6.01 12.467813 3.577738 30.587594 23.759195
2003-05-05 08:15:38 51°21.93 3°6.03 12.206355 3.579003 30.60152 23.961452
2003-05-05 08:15:42 51°21.93 3°6.05 12.465509 3.581637 30.625892 23.927742
2003-05-05 08:15:48 51°21.94 3°6.08 12.316115 3.583744 30.645263 23.725486
2003-05-05 08:15:54 51°21.94 3°6.11 12.387529 3.584903 30.65627 23.085007
2003-05-05 08:15:58 51°21.95 3°6.12 12.387529 3.584903 30.65627 23.085007
2003-05-05 08:16:02 51°21.95 3°6.14 12.458686 3.58543 30.660631 22.478238
2003-05-05 08:16:08 51°21.96 3°6.17 12.346039 3.586483 30.671923 21.770341
2003-05-05 08:16:14 51°21.97 3°6.2 12.421354 3.588169 30.687936 21.365828
2003-05-05 08:16:18 51°21.97 3°6.22 12.384318 3.58838 30.69058 20.927606
2003-05-05 08:16:22 51°21.97 3°6.23 12.384499 3.589434 30.702518 20.253418
2003-05-05 08:16:28 51°21.98 3°6.26 12.384499 3.589434 30.702518 20.253418
2003-05-05 08:16:34 51°21.99 3°6.29 12.493649 3.58975 30.707451 19.646648
2003-05-05 08:16:38 51°21.99 3°6.31 12.270275 3.589328 30.70216 19.107298
2003-05-05 08:16:44 51°22 3°6.34 12.419275 3.589961 30.710096 18.500529
2003-05-05 08:16:48 51°22 3°6.35 12.566723 3.589855 30.709738 18.669076
2003-05-05 08:16:54 51°22.01 3°6.38 12.528278 3.589012 30.70173 17.893759
2003-05-05 08:16:58 51°22.01 3°6.4 12.528278 3.589012 30.70173 17.893759
2003-05-05 08:17:02 51°22.02 3°6.42 12.267647 3.589539 30.707378 17.455537
2003-05-05 08:17:08 51°22.02 3°6.45 12.528864 3.589012 30.703659 17.556665
2003-05-05 08:17:14 51°22.03 3°6.48 12.304341 3.588591 30.698368 17.624084